<?xml version='1.0' encoding='UTF-8'?>
<gpx version="1.1" creator="https://www.komoot.de" xmlns="http://www.topografix.com/GPX/1/1" xmlns:xsi="http://www.w3.org/2001/XMLSchema-instance" xsi:schemaLocation="http://www.topografix.com/GPX/1/1 http://www.topografix.com/GPX/1/1/gpx.xsd">
  <metadata>
    <name>2RC Gravelbike Tour - Schönberg am Kamp Runde 01 #2rcformatc</name>
    <author>
      <link href="https://www.komoot.de">
        <text>komoot</text>
        <type>text/html</type>
      </link>
    </author>
  </metadata>
  <trk>
    <name>2RC Gravelbike Tour - Schönberg am Kamp Runde 01 #2rcformatc</name>
    <trkseg>
      <trkpt lat="48.523004" lon="15.697596">
        <ele>245.265444</ele>
        <time>2023-08-16T09:03:25.865Z</time>
      </trkpt>
      <trkpt lat="48.523221" lon="15.697829">
        <ele>245.265444</ele>
        <time>2023-08-16T09:03:37.495Z</time>
      </trkpt>
      <trkpt lat="48.523359" lon="15.697995">
        <ele>245.265444</ele>
        <time>2023-08-16T09:03:44.643Z</time>
      </trkpt>
      <trkpt lat="48.523469" lon="15.698110">
        <ele>245.265444</ele>
        <time>2023-08-16T09:03:50.913Z</time>
      </trkpt>
      <trkpt lat="48.523767" lon="15.698398">
        <ele>245.443226</ele>
        <time>2023-08-16T09:04:07.149Z</time>
      </trkpt>
      <trkpt lat="48.523881" lon="15.698390">
        <ele>246.097444</ele>
        <time>2023-08-16T09:04:12.443Z</time>
      </trkpt>
      <trkpt lat="48.523969" lon="15.698253">
        <ele>246.822042</ele>
        <time>2023-08-16T09:04:18.789Z</time>
      </trkpt>
      <trkpt lat="48.524345" lon="15.697294">
        <ele>251.053248</ele>
        <time>2023-08-16T09:05:02.341Z</time>
      </trkpt>
      <trkpt lat="48.524496" lon="15.697019">
        <ele>252.409498</ele>
        <time>2023-08-16T09:05:14.551Z</time>
      </trkpt>
      <trkpt lat="48.524669" lon="15.696835">
        <ele>253.622577</ele>
        <time>2023-08-16T09:05:23.449Z</time>
      </trkpt>
      <trkpt lat="48.524837" lon="15.696776">
        <ele>254.611356</ele>
        <time>2023-08-16T09:05:29.855Z</time>
      </trkpt>
      <trkpt lat="48.524941" lon="15.696776">
        <ele>255.207543</ele>
        <time>2023-08-16T09:05:33.662Z</time>
      </trkpt>
      <trkpt lat="48.525051" lon="15.696805">
        <ele>255.999846</ele>
        <time>2023-08-16T09:05:38.329Z</time>
      </trkpt>
      <trkpt lat="48.525239" lon="15.696933">
        <ele>257.845024</ele>
        <time>2023-08-16T09:05:48.372Z</time>
      </trkpt>
      <trkpt lat="48.525343" lon="15.696962">
        <ele>258.791270</ele>
        <time>2023-08-16T09:05:54.295Z</time>
      </trkpt>
      <trkpt lat="48.525447" lon="15.696893">
        <ele>259.807648</ele>
        <time>2023-08-16T09:06:00.733Z</time>
      </trkpt>
      <trkpt lat="48.525470" lon="15.696840">
        <ele>260.183121</ele>
        <time>2023-08-16T09:06:03.166Z</time>
      </trkpt>
      <trkpt lat="48.525544" lon="15.696668">
        <ele>261.398503</ele>
        <time>2023-08-16T09:06:11.904Z</time>
      </trkpt>
      <trkpt lat="48.525703" lon="15.696102">
        <ele>265.041636</ele>
        <time>2023-08-16T09:06:41.611Z</time>
      </trkpt>
      <trkpt lat="48.525751" lon="15.695876">
        <ele>266.447999</ele>
        <time>2023-08-16T09:06:53.777Z</time>
      </trkpt>
      <trkpt lat="48.525874" lon="15.695724">
        <ele>267.870096</ele>
        <time>2023-08-16T09:07:06.750Z</time>
      </trkpt>
      <trkpt lat="48.526004" lon="15.695690">
        <ele>269.050554</ele>
        <time>2023-08-16T09:07:17.299Z</time>
      </trkpt>
      <trkpt lat="48.526123" lon="15.695760">
        <ele>270.193216</ele>
        <time>2023-08-16T09:07:27.702Z</time>
      </trkpt>
      <trkpt lat="48.526229" lon="15.695888">
        <ele>271.407608</ele>
        <time>2023-08-16T09:07:38.797Z</time>
      </trkpt>
      <trkpt lat="48.526370" lon="15.696016">
        <ele>273.038477</ele>
        <time>2023-08-16T09:07:51.279Z</time>
      </trkpt>
      <trkpt lat="48.527123" lon="15.696433">
        <ele>281.156343</ele>
        <time>2023-08-16T09:08:50.971Z</time>
      </trkpt>
      <trkpt lat="48.527416" lon="15.696512">
        <ele>284.168836</ele>
        <time>2023-08-16T09:09:14.059Z</time>
      </trkpt>
      <trkpt lat="48.527787" lon="15.696706">
        <ele>288.142685</ele>
        <time>2023-08-16T09:09:42.766Z</time>
      </trkpt>
      <trkpt lat="48.528000" lon="15.696631">
        <ele>290.229130</ele>
        <time>2023-08-16T09:09:56.815Z</time>
      </trkpt>
      <trkpt lat="48.528359" lon="15.696686">
        <ele>292.917814</ele>
        <time>2023-08-16T09:10:18.246Z</time>
      </trkpt>
      <trkpt lat="48.528600" lon="15.696633">
        <ele>294.732477</ele>
        <time>2023-08-16T09:10:31.818Z</time>
      </trkpt>
      <trkpt lat="48.528774" lon="15.696508">
        <ele>296.168218</ele>
        <time>2023-08-16T09:10:42.068Z</time>
      </trkpt>
      <trkpt lat="48.529721" lon="15.696095">
        <ele>303.527478</ele>
        <time>2023-08-16T09:11:37.295Z</time>
      </trkpt>
      <trkpt lat="48.530196" lon="15.695927">
        <ele>307.387499</ele>
        <time>2023-08-16T09:12:10.423Z</time>
      </trkpt>
      <trkpt lat="48.530293" lon="15.695930">
        <ele>308.155146</ele>
        <time>2023-08-16T09:12:17.550Z</time>
      </trkpt>
      <trkpt lat="48.530774" lon="15.696274">
        <ele>312.366175</ele>
        <time>2023-08-16T09:12:54.097Z</time>
      </trkpt>
      <trkpt lat="48.531222" lon="15.696411">
        <ele>315.982806</ele>
        <time>2023-08-16T09:13:22.032Z</time>
      </trkpt>
      <trkpt lat="48.531319" lon="15.696574">
        <ele>317.131038</ele>
        <time>2023-08-16T09:13:30.191Z</time>
      </trkpt>
      <trkpt lat="48.531321" lon="15.696699">
        <ele>317.694652</ele>
        <time>2023-08-16T09:13:34.319Z</time>
      </trkpt>
      <trkpt lat="48.531237" lon="15.696804">
        <ele>318.274383</ele>
        <time>2023-08-16T09:13:39.341Z</time>
      </trkpt>
      <trkpt lat="48.531008" lon="15.696792">
        <ele>319.492584</ele>
        <time>2023-08-16T09:13:49.940Z</time>
      </trkpt>
      <trkpt lat="48.530370" lon="15.697012">
        <ele>322.971794</ele>
        <time>2023-08-16T09:14:17.152Z</time>
      </trkpt>
      <trkpt lat="48.530091" lon="15.697055">
        <ele>324.462791</ele>
        <time>2023-08-16T09:14:29.319Z</time>
      </trkpt>
      <trkpt lat="48.529773" lon="15.697192">
        <ele>326.220883</ele>
        <time>2023-08-16T09:14:45.232Z</time>
      </trkpt>
      <trkpt lat="48.529703" lon="15.697278">
        <ele>326.700648</ele>
        <time>2023-08-16T09:14:50.324Z</time>
      </trkpt>
      <trkpt lat="48.529662" lon="15.697328">
        <ele>326.980830</ele>
        <time>2023-08-16T09:14:53.198Z</time>
      </trkpt>
      <trkpt lat="48.529539" lon="15.697583">
        <ele>329.269326</ele>
        <time>2023-08-16T09:15:04.562Z</time>
      </trkpt>
      <trkpt lat="48.529489" lon="15.697790">
        <ele>330.939185</ele>
        <time>2023-08-16T09:15:13.803Z</time>
      </trkpt>
      <trkpt lat="48.529489" lon="15.698006">
        <ele>332.576157</ele>
        <time>2023-08-16T09:15:23.174Z</time>
      </trkpt>
      <trkpt lat="48.529580" lon="15.698625">
        <ele>337.381491</ele>
        <time>2023-08-16T09:15:55.371Z</time>
      </trkpt>
      <trkpt lat="48.529864" lon="15.699509">
        <ele>344.827655</ele>
        <time>2023-08-16T09:16:56.828Z</time>
      </trkpt>
      <trkpt lat="48.530137" lon="15.700050">
        <ele>349.247828</ele>
        <time>2023-08-16T09:17:41.991Z</time>
      </trkpt>
      <trkpt lat="48.530313" lon="15.700745">
        <ele>353.108616</ele>
        <time>2023-08-16T09:18:25.014Z</time>
      </trkpt>
      <trkpt lat="48.530316" lon="15.700898">
        <ele>353.902826</ele>
        <time>2023-08-16T09:18:32.740Z</time>
      </trkpt>
      <trkpt lat="48.530223" lon="15.701097">
        <ele>355.166592</ele>
        <time>2023-08-16T09:18:43.372Z</time>
      </trkpt>
      <trkpt lat="48.530114" lon="15.701097">
        <ele>356.020627</ele>
        <time>2023-08-16T09:18:50.083Z</time>
      </trkpt>
      <trkpt lat="48.529688" lon="15.700874">
        <ele>359.553284</ele>
        <time>2023-08-16T09:19:09.884Z</time>
      </trkpt>
      <trkpt lat="48.529534" lon="15.700660">
        <ele>361.193065</ele>
        <time>2023-08-16T09:19:14.767Z</time>
      </trkpt>
      <trkpt lat="48.529420" lon="15.700553">
        <ele>361.782745</ele>
        <time>2023-08-16T09:19:17.287Z</time>
      </trkpt>
      <trkpt lat="48.529267" lon="15.700481">
        <ele>361.875526</ele>
        <time>2023-08-16T09:19:20.121Z</time>
      </trkpt>
      <trkpt lat="48.529059" lon="15.700456">
        <ele>361.996328</ele>
        <time>2023-08-16T09:19:23.965Z</time>
      </trkpt>
      <trkpt lat="48.528941" lon="15.700396">
        <ele>362.068413</ele>
        <time>2023-08-16T09:19:26.139Z</time>
      </trkpt>
      <trkpt lat="48.528783" lon="15.700226">
        <ele>362.180733</ele>
        <time>2023-08-16T09:19:29.728Z</time>
      </trkpt>
      <trkpt lat="48.528670" lon="15.700170">
        <ele>362.249587</ele>
        <time>2023-08-16T09:19:31.838Z</time>
      </trkpt>
      <trkpt lat="48.528580" lon="15.700192">
        <ele>362.302371</ele>
        <time>2023-08-16T09:19:33.618Z</time>
      </trkpt>
      <trkpt lat="48.528468" lon="15.700252">
        <ele>362.371173</ele>
        <time>2023-08-16T09:19:36.081Z</time>
      </trkpt>
      <trkpt lat="48.528327" lon="15.700413">
        <ele>362.473516</ele>
        <time>2023-08-16T09:19:39.788Z</time>
      </trkpt>
      <trkpt lat="48.528231" lon="15.700583">
        <ele>362.559175</ele>
        <time>2023-08-16T09:19:43.691Z</time>
      </trkpt>
      <trkpt lat="48.528169" lon="15.700787">
        <ele>362.645233</ele>
        <time>2023-08-16T09:19:47.954Z</time>
      </trkpt>
      <trkpt lat="48.528185" lon="15.700928">
        <ele>362.700082</ele>
        <time>2023-08-16T09:19:51.523Z</time>
      </trkpt>
      <trkpt lat="48.528210" lon="15.701083">
        <ele>362.761248</ele>
        <time>2023-08-16T09:19:55.922Z</time>
      </trkpt>
      <trkpt lat="48.528276" lon="15.701187">
        <ele>363.317106</ele>
        <time>2023-08-16T09:20:00.358Z</time>
      </trkpt>
      <trkpt lat="48.528487" lon="15.701421">
        <ele>366.060937</ele>
        <time>2023-08-16T09:20:13.519Z</time>
      </trkpt>
      <trkpt lat="48.528699" lon="15.701715">
        <ele>369.077773</ele>
        <time>2023-08-16T09:20:31.253Z</time>
      </trkpt>
      <trkpt lat="48.528955" lon="15.702282">
        <ele>373.840891</ele>
        <time>2023-08-16T09:21:07.065Z</time>
      </trkpt>
      <trkpt lat="48.529012" lon="15.702496">
        <ele>375.441882</ele>
        <time>2023-08-16T09:21:21.126Z</time>
      </trkpt>
      <trkpt lat="48.529034" lon="15.702797">
        <ele>377.543777</ele>
        <time>2023-08-16T09:21:41.098Z</time>
      </trkpt>
      <trkpt lat="48.528989" lon="15.703123">
        <ele>379.855140</ele>
        <time>2023-08-16T09:22:03.882Z</time>
      </trkpt>
      <trkpt lat="48.528852" lon="15.703483">
        <ele>382.569966</ele>
        <time>2023-08-16T09:22:30.414Z</time>
      </trkpt>
      <trkpt lat="48.528616" lon="15.703878">
        <ele>385.700824</ele>
        <time>2023-08-16T09:23:01.444Z</time>
      </trkpt>
      <trkpt lat="48.528558" lon="15.704021">
        <ele>386.687691</ele>
        <time>2023-08-16T09:23:10.597Z</time>
      </trkpt>
      <trkpt lat="48.528529" lon="15.704214">
        <ele>387.852391</ele>
        <time>2023-08-16T09:23:20.737Z</time>
      </trkpt>
      <trkpt lat="48.528578" lon="15.704510">
        <ele>389.647989</ele>
        <time>2023-08-16T09:23:35.424Z</time>
      </trkpt>
      <trkpt lat="48.528553" lon="15.704674">
        <ele>390.638390</ele>
        <time>2023-08-16T09:23:44.534Z</time>
      </trkpt>
      <trkpt lat="48.528581" lon="15.705158">
        <ele>393.497641</ele>
        <time>2023-08-16T09:24:08.467Z</time>
      </trkpt>
      <trkpt lat="48.528553" lon="15.705734">
        <ele>396.896596</ele>
        <time>2023-08-16T09:24:32.063Z</time>
      </trkpt>
      <trkpt lat="48.528488" lon="15.706468">
        <ele>397.090633</ele>
        <time>2023-08-16T09:24:54.606Z</time>
      </trkpt>
      <trkpt lat="48.528455" lon="15.706644">
        <ele>396.933003</ele>
        <time>2023-08-16T09:24:59.037Z</time>
      </trkpt>
      <trkpt lat="48.528319" lon="15.707137">
        <ele>396.472773</ele>
        <time>2023-08-16T09:25:10.560Z</time>
      </trkpt>
      <trkpt lat="48.527947" lon="15.708009">
        <ele>395.578904</ele>
        <time>2023-08-16T09:25:31.406Z</time>
      </trkpt>
      <trkpt lat="48.527755" lon="15.708378">
        <ele>395.166630</ele>
        <time>2023-08-16T09:25:40.756Z</time>
      </trkpt>
      <trkpt lat="48.527654" lon="15.708662">
        <ele>394.868481</ele>
        <time>2023-08-16T09:25:47.184Z</time>
      </trkpt>
      <trkpt lat="48.527585" lon="15.709159">
        <ele>394.398813</ele>
        <time>2023-08-16T09:25:57.463Z</time>
      </trkpt>
      <trkpt lat="48.527483" lon="15.709443">
        <ele>394.100000</ele>
        <time>2023-08-16T09:26:04.150Z</time>
      </trkpt>
      <trkpt lat="48.527397" lon="15.710028">
        <ele>393.545761</ele>
        <time>2023-08-16T09:26:16.925Z</time>
      </trkpt>
      <trkpt lat="48.526695" lon="15.715561">
        <ele>399.875564</ele>
        <time>2023-08-16T09:29:10.315Z</time>
      </trkpt>
      <trkpt lat="48.526647" lon="15.715725">
        <ele>400.208364</ele>
        <time>2023-08-16T09:29:17.377Z</time>
      </trkpt>
      <trkpt lat="48.526586" lon="15.715845">
        <ele>400.489142</ele>
        <time>2023-08-16T09:29:23.626Z</time>
      </trkpt>
      <trkpt lat="48.527211" lon="15.715907">
        <ele>403.935928</ele>
        <time>2023-08-16T09:29:54.829Z</time>
      </trkpt>
      <trkpt lat="48.527549" lon="15.716011">
        <ele>406.280282</ele>
        <time>2023-08-16T09:30:14.896Z</time>
      </trkpt>
      <trkpt lat="48.527804" lon="15.716167">
        <ele>408.150169</ele>
        <time>2023-08-16T09:30:31.715Z</time>
      </trkpt>
      <trkpt lat="48.528012" lon="15.716433">
        <ele>410.002658</ele>
        <time>2023-08-16T09:30:49.297Z</time>
      </trkpt>
      <trkpt lat="48.528138" lon="15.716794">
        <ele>411.839318</ele>
        <time>2023-08-16T09:31:05.696Z</time>
      </trkpt>
      <trkpt lat="48.528327" lon="15.717908">
        <ele>416.703581</ele>
        <time>2023-08-16T09:31:52.207Z</time>
      </trkpt>
      <trkpt lat="48.528455" lon="15.718514">
        <ele>419.327516</ele>
        <time>2023-08-16T09:32:16.256Z</time>
      </trkpt>
      <trkpt lat="48.528591" lon="15.719182">
        <ele>422.210412</ele>
        <time>2023-08-16T09:32:40.594Z</time>
      </trkpt>
      <trkpt lat="48.528631" lon="15.720280">
        <ele>425.670833</ele>
        <time>2023-08-16T09:33:13.177Z</time>
      </trkpt>
      <trkpt lat="48.528631" lon="15.721010">
        <ele>427.249374</ele>
        <time>2023-08-16T09:33:31.817Z</time>
      </trkpt>
      <trkpt lat="48.528551" lon="15.721628">
        <ele>428.611020</ele>
        <time>2023-08-16T09:33:46.666Z</time>
      </trkpt>
      <trkpt lat="48.528308" lon="15.722354">
        <ele>430.366276</ele>
        <time>2023-08-16T09:34:05.398Z</time>
      </trkpt>
      <trkpt lat="48.528181" lon="15.722727">
        <ele>430.976212</ele>
        <time>2023-08-16T09:34:15.129Z</time>
      </trkpt>
      <trkpt lat="48.528037" lon="15.723515">
        <ele>432.165011</ele>
        <time>2023-08-16T09:34:33.891Z</time>
      </trkpt>
      <trkpt lat="48.527732" lon="15.725774">
        <ele>435.159855</ele>
        <time>2023-08-16T09:35:22.826Z</time>
      </trkpt>
      <trkpt lat="48.527671" lon="15.726485">
        <ele>435.893926</ele>
        <time>2023-08-16T09:35:37.374Z</time>
      </trkpt>
      <trkpt lat="48.527690" lon="15.727004">
        <ele>436.426137</ele>
        <time>2023-08-16T09:35:47.359Z</time>
      </trkpt>
      <trkpt lat="48.527764" lon="15.727795">
        <ele>437.220271</ele>
        <time>2023-08-16T09:36:01.921Z</time>
      </trkpt>
      <trkpt lat="48.527780" lon="15.728343">
        <ele>437.695638</ele>
        <time>2023-08-16T09:36:11.457Z</time>
      </trkpt>
      <trkpt lat="48.527778" lon="15.729765">
        <ele>438.927969</ele>
        <time>2023-08-16T09:36:37.311Z</time>
      </trkpt>
      <trkpt lat="48.527742" lon="15.730366">
        <ele>439.469827</ele>
        <time>2023-08-16T09:36:49.543Z</time>
      </trkpt>
      <trkpt lat="48.528214" lon="15.731139">
        <ele>442.490571</ele>
        <time>2023-08-16T09:37:24.575Z</time>
      </trkpt>
      <trkpt lat="48.528417" lon="15.731710">
        <ele>444.352480</ele>
        <time>2023-08-16T09:37:49.669Z</time>
      </trkpt>
      <trkpt lat="48.528450" lon="15.731767">
        <ele>444.569994</ele>
        <time>2023-08-16T09:37:52.852Z</time>
      </trkpt>
      <trkpt lat="48.528545" lon="15.731806">
        <ele>444.997084</ele>
        <time>2023-08-16T09:37:59.157Z</time>
      </trkpt>
      <trkpt lat="48.528605" lon="15.731761">
        <ele>445.287715</ele>
        <time>2023-08-16T09:38:03.448Z</time>
      </trkpt>
      <trkpt lat="48.528652" lon="15.731549">
        <ele>445.930006</ele>
        <time>2023-08-16T09:38:13.307Z</time>
      </trkpt>
      <trkpt lat="48.528720" lon="15.731383">
        <ele>446.490781</ele>
        <time>2023-08-16T09:38:22.361Z</time>
      </trkpt>
      <trkpt lat="48.529202" lon="15.730805">
        <ele>450.429383</ele>
        <time>2023-08-16T09:39:07.343Z</time>
      </trkpt>
      <trkpt lat="48.529339" lon="15.730586">
        <ele>451.868075</ele>
        <time>2023-08-16T09:39:22.391Z</time>
      </trkpt>
      <trkpt lat="48.529425" lon="15.730340">
        <ele>453.196508</ele>
        <time>2023-08-16T09:39:36.198Z</time>
      </trkpt>
      <trkpt lat="48.529577" lon="15.730064">
        <ele>454.910777</ele>
        <time>2023-08-16T09:39:53.977Z</time>
      </trkpt>
      <trkpt lat="48.529798" lon="15.729841">
        <ele>456.827533</ele>
        <time>2023-08-16T09:40:13.815Z</time>
      </trkpt>
      <trkpt lat="48.530081" lon="15.729624">
        <ele>459.116353</ele>
        <time>2023-08-16T09:40:37.460Z</time>
      </trkpt>
      <trkpt lat="48.530363" lon="15.729402">
        <ele>461.205299</ele>
        <time>2023-08-16T09:41:00.720Z</time>
      </trkpt>
      <trkpt lat="48.530639" lon="15.729078">
        <ele>463.294567</ele>
        <time>2023-08-16T09:41:25.728Z</time>
      </trkpt>
      <trkpt lat="48.530813" lon="15.728787">
        <ele>464.846254</ele>
        <time>2023-08-16T09:41:43.644Z</time>
      </trkpt>
      <trkpt lat="48.531007" lon="15.728556">
        <ele>466.322748</ele>
        <time>2023-08-16T09:42:00.247Z</time>
      </trkpt>
      <trkpt lat="48.531104" lon="15.728496">
        <ele>466.949205</ele>
        <time>2023-08-16T09:42:07.159Z</time>
      </trkpt>
      <trkpt lat="48.531383" lon="15.728413">
        <ele>468.648660</ele>
        <time>2023-08-16T09:42:25.318Z</time>
      </trkpt>
      <trkpt lat="48.531495" lon="15.728429">
        <ele>469.321002</ele>
        <time>2023-08-16T09:42:32.250Z</time>
      </trkpt>
      <trkpt lat="48.531762" lon="15.728637">
        <ele>471.070673</ele>
        <time>2023-08-16T09:42:50.527Z</time>
      </trkpt>
      <trkpt lat="48.532213" lon="15.728894">
        <ele>473.076979</ele>
        <time>2023-08-16T09:43:19.234Z</time>
      </trkpt>
      <trkpt lat="48.532924" lon="15.729154">
        <ele>476.121759</ele>
        <time>2023-08-16T09:44:01.481Z</time>
      </trkpt>
      <trkpt lat="48.533009" lon="15.729221">
        <ele>476.520830</ele>
        <time>2023-08-16T09:44:06.825Z</time>
      </trkpt>
      <trkpt lat="48.533095" lon="15.729337">
        <ele>477.000761</ele>
        <time>2023-08-16T09:44:13.246Z</time>
      </trkpt>
      <trkpt lat="48.533341" lon="15.729817">
        <ele>478.652614</ele>
        <time>2023-08-16T09:44:35.505Z</time>
      </trkpt>
      <trkpt lat="48.533704" lon="15.730276">
        <ele>480.436694</ele>
        <time>2023-08-16T09:45:02.043Z</time>
      </trkpt>
      <trkpt lat="48.534495" lon="15.731042">
        <ele>483.977611</ele>
        <time>2023-08-16T09:45:56.444Z</time>
      </trkpt>
      <trkpt lat="48.534906" lon="15.731353">
        <ele>485.405488</ele>
        <time>2023-08-16T09:46:21.232Z</time>
      </trkpt>
      <trkpt lat="48.535133" lon="15.731582">
        <ele>485.782349</ele>
        <time>2023-08-16T09:46:35.110Z</time>
      </trkpt>
      <trkpt lat="48.535317" lon="15.731993">
        <ele>486.235861</ele>
        <time>2023-08-16T09:46:50.826Z</time>
      </trkpt>
      <trkpt lat="48.535523" lon="15.732323">
        <ele>486.650435</ele>
        <time>2023-08-16T09:47:04.619Z</time>
      </trkpt>
      <trkpt lat="48.535904" lon="15.732935">
        <ele>487.418297</ele>
        <time>2023-08-16T09:47:27.666Z</time>
      </trkpt>
      <trkpt lat="48.536189" lon="15.733449">
        <ele>486.924647</ele>
        <time>2023-08-16T09:47:43.160Z</time>
      </trkpt>
      <trkpt lat="48.536372" lon="15.733678">
        <ele>486.113333</ele>
        <time>2023-08-16T09:47:50.745Z</time>
      </trkpt>
      <trkpt lat="48.536561" lon="15.733838">
        <ele>485.373674</ele>
        <time>2023-08-16T09:47:57.344Z</time>
      </trkpt>
      <trkpt lat="48.536621" lon="15.733864">
        <ele>485.160582</ele>
        <time>2023-08-16T09:47:59.174Z</time>
      </trkpt>
      <trkpt lat="48.536992" lon="15.733978">
        <ele>483.868116</ele>
        <time>2023-08-16T09:48:10.224Z</time>
      </trkpt>
      <trkpt lat="48.537463" lon="15.734014">
        <ele>482.258161</ele>
        <time>2023-08-16T09:48:23.893Z</time>
      </trkpt>
      <trkpt lat="48.537661" lon="15.733954">
        <ele>481.568508</ele>
        <time>2023-08-16T09:48:29.847Z</time>
      </trkpt>
      <trkpt lat="48.537800" lon="15.733866">
        <ele>481.017784</ele>
        <time>2023-08-16T09:48:34.222Z</time>
      </trkpt>
      <trkpt lat="48.538094" lon="15.733514">
        <ele>479.646898</ele>
        <time>2023-08-16T09:48:45.251Z</time>
      </trkpt>
      <trkpt lat="48.538239" lon="15.733152">
        <ele>478.623291</ele>
        <time>2023-08-16T09:48:53.516Z</time>
      </trkpt>
      <trkpt lat="48.538367" lon="15.732543">
        <ele>477.077438</ele>
        <time>2023-08-16T09:49:06.014Z</time>
      </trkpt>
      <trkpt lat="48.538457" lon="15.732323">
        <ele>476.451778</ele>
        <time>2023-08-16T09:49:11.225Z</time>
      </trkpt>
      <trkpt lat="48.538576" lon="15.732122">
        <ele>475.799434</ele>
        <time>2023-08-16T09:49:16.701Z</time>
      </trkpt>
      <trkpt lat="48.538697" lon="15.732011">
        <ele>475.282134</ele>
        <time>2023-08-16T09:49:21.196Z</time>
      </trkpt>
      <trkpt lat="48.538977" lon="15.732000">
        <ele>475.106695</ele>
        <time>2023-08-16T09:49:30.384Z</time>
      </trkpt>
      <trkpt lat="48.539319" lon="15.732114">
        <ele>475.290685</ele>
        <time>2023-08-16T09:49:43.006Z</time>
      </trkpt>
      <trkpt lat="48.539681" lon="15.732322">
        <ele>475.494156</ele>
        <time>2023-08-16T09:49:58.455Z</time>
      </trkpt>
      <trkpt lat="48.539953" lon="15.732536">
        <ele>475.655275</ele>
        <time>2023-08-16T09:50:11.617Z</time>
      </trkpt>
      <trkpt lat="48.540318" lon="15.732633">
        <ele>475.849970</ele>
        <time>2023-08-16T09:50:28.545Z</time>
      </trkpt>
      <trkpt lat="48.540992" lon="15.732880">
        <ele>477.873087</ele>
        <time>2023-08-16T09:51:03.894Z</time>
      </trkpt>
      <trkpt lat="48.541312" lon="15.733010">
        <ele>479.119357</ele>
        <time>2023-08-16T09:51:22.575Z</time>
      </trkpt>
      <trkpt lat="48.541379" lon="15.733063">
        <ele>479.403807</ele>
        <time>2023-08-16T09:51:26.909Z</time>
      </trkpt>
      <trkpt lat="48.541453" lon="15.733192">
        <ele>479.828817</ele>
        <time>2023-08-16T09:51:33.616Z</time>
      </trkpt>
      <trkpt lat="48.541456" lon="15.733521">
        <ele>480.648114</ele>
        <time>2023-08-16T09:51:46.485Z</time>
      </trkpt>
      <trkpt lat="48.541397" lon="15.733884">
        <ele>481.578832</ele>
        <time>2023-08-16T09:52:01.288Z</time>
      </trkpt>
      <trkpt lat="48.541278" lon="15.734198">
        <ele>482.479733</ele>
        <time>2023-08-16T09:52:15.549Z</time>
      </trkpt>
      <trkpt lat="48.540928" lon="15.735311">
        <ele>486.286433</ele>
        <time>2023-08-16T09:53:04.652Z</time>
      </trkpt>
      <trkpt lat="48.540489" lon="15.736158">
        <ele>489.661871</ele>
        <time>2023-08-16T09:53:48.682Z</time>
      </trkpt>
      <trkpt lat="48.540437" lon="15.736411">
        <ele>490.493165</ele>
        <time>2023-08-16T09:53:59.524Z</time>
      </trkpt>
      <trkpt lat="48.540462" lon="15.736534">
        <ele>490.896920</ele>
        <time>2023-08-16T09:54:04.803Z</time>
      </trkpt>
      <trkpt lat="48.540651" lon="15.736769">
        <ele>491.972477</ele>
        <time>2023-08-16T09:54:19.925Z</time>
      </trkpt>
      <trkpt lat="48.542553" lon="15.738378">
        <ele>500.042902</ele>
        <time>2023-08-16T09:56:26.070Z</time>
      </trkpt>
      <trkpt lat="48.544378" lon="15.739723">
        <ele>503.454423</ele>
        <time>2023-08-16T09:57:52.357Z</time>
      </trkpt>
      <trkpt lat="48.544828" lon="15.740132">
        <ele>503.994193</ele>
        <time>2023-08-16T09:58:13.368Z</time>
      </trkpt>
      <trkpt lat="48.545203" lon="15.740416">
        <ele>504.425338</ele>
        <time>2023-08-16T09:58:31.037Z</time>
      </trkpt>
      <trkpt lat="48.546131" lon="15.741388">
        <ele>506.441904</ele>
        <time>2023-08-16T09:59:22.869Z</time>
      </trkpt>
      <trkpt lat="48.546767" lon="15.742130">
        <ele>507.846544</ele>
        <time>2023-08-16T10:00:01.867Z</time>
      </trkpt>
      <trkpt lat="48.546931" lon="15.742453">
        <ele>508.065014</ele>
        <time>2023-08-16T10:00:14.923Z</time>
      </trkpt>
      <trkpt lat="48.547205" lon="15.743097">
        <ele>508.475876</ele>
        <time>2023-08-16T10:00:37.293Z</time>
      </trkpt>
      <trkpt lat="48.547554" lon="15.743744">
        <ele>508.923795</ele>
        <time>2023-08-16T10:00:58.754Z</time>
      </trkpt>
      <trkpt lat="48.547800" lon="15.744124">
        <ele>509.209045</ele>
        <time>2023-08-16T10:01:11.034Z</time>
      </trkpt>
      <trkpt lat="48.549120" lon="15.745397">
        <ele>508.704635</ele>
        <time>2023-08-16T10:02:07.108Z</time>
      </trkpt>
      <trkpt lat="48.549267" lon="15.745654">
        <ele>508.623683</ele>
        <time>2023-08-16T10:02:15.854Z</time>
      </trkpt>
      <trkpt lat="48.549389" lon="15.745811">
        <ele>508.505440</ele>
        <time>2023-08-16T10:02:21.720Z</time>
      </trkpt>
      <trkpt lat="48.549550" lon="15.745945">
        <ele>508.329889</ele>
        <time>2023-08-16T10:02:28.623Z</time>
      </trkpt>
      <trkpt lat="48.550201" lon="15.746356">
        <ele>507.656061</ele>
        <time>2023-08-16T10:02:53.853Z</time>
      </trkpt>
      <trkpt lat="48.550622" lon="15.746785">
        <ele>507.171079</ele>
        <time>2023-08-16T10:03:11.557Z</time>
      </trkpt>
      <trkpt lat="48.550839" lon="15.746907">
        <ele>506.949953</ele>
        <time>2023-08-16T10:03:19.284Z</time>
      </trkpt>
      <trkpt lat="48.551528" lon="15.746999">
        <ele>505.019849</ele>
        <time>2023-08-16T10:03:31.080Z</time>
      </trkpt>
      <trkpt lat="48.551745" lon="15.747107">
        <ele>504.336485</ele>
        <time>2023-08-16T10:03:34.800Z</time>
      </trkpt>
      <trkpt lat="48.552799" lon="15.748001">
        <ele>501.038716</ele>
        <time>2023-08-16T10:03:55.553Z</time>
      </trkpt>
      <trkpt lat="48.553104" lon="15.748065">
        <ele>500.490845</ele>
        <time>2023-08-16T10:04:01.348Z</time>
      </trkpt>
      <trkpt lat="48.553928" lon="15.748315">
        <ele>498.995497</ele>
        <time>2023-08-16T10:04:17.541Z</time>
      </trkpt>
      <trkpt lat="48.554170" lon="15.748398">
        <ele>498.553970</ele>
        <time>2023-08-16T10:04:22.340Z</time>
      </trkpt>
      <trkpt lat="48.554255" lon="15.748355">
        <ele>498.394483</ele>
        <time>2023-08-16T10:04:24.095Z</time>
      </trkpt>
      <trkpt lat="48.554601" lon="15.747799">
        <ele>496.657089</ele>
        <time>2023-08-16T10:04:33.750Z</time>
      </trkpt>
      <trkpt lat="48.554758" lon="15.747646">
        <ele>495.980165</ele>
        <time>2023-08-16T10:04:37.129Z</time>
      </trkpt>
      <trkpt lat="48.554919" lon="15.747658">
        <ele>495.396114</ele>
        <time>2023-08-16T10:04:39.939Z</time>
      </trkpt>
      <trkpt lat="48.557280" lon="15.748275">
        <ele>483.641407</ele>
        <time>2023-08-16T10:05:17.838Z</time>
      </trkpt>
      <trkpt lat="48.557973" lon="15.748524">
        <ele>478.431129</ele>
        <time>2023-08-16T10:05:28.406Z</time>
      </trkpt>
      <trkpt lat="48.558348" lon="15.748825">
        <ele>474.518734</ele>
        <time>2023-08-16T10:05:34.521Z</time>
      </trkpt>
      <trkpt lat="48.558746" lon="15.749820">
        <ele>467.429149</ele>
        <time>2023-08-16T10:05:45.446Z</time>
      </trkpt>
      <trkpt lat="48.558806" lon="15.750043">
        <ele>465.961218</ele>
        <time>2023-08-16T10:05:47.684Z</time>
      </trkpt>
      <trkpt lat="48.559010" lon="15.750791">
        <ele>461.152082</ele>
        <time>2023-08-16T10:05:55.246Z</time>
      </trkpt>
      <trkpt lat="48.559323" lon="15.752109">
        <ele>452.898149</ele>
        <time>2023-08-16T10:06:08.490Z</time>
      </trkpt>
      <trkpt lat="48.559502" lon="15.752642">
        <ele>449.375071</ele>
        <time>2023-08-16T10:06:14.278Z</time>
      </trkpt>
      <trkpt lat="48.561031" lon="15.755865">
        <ele>436.254742</ele>
        <time>2023-08-16T10:06:55.778Z</time>
      </trkpt>
      <trkpt lat="48.561266" lon="15.756250">
        <ele>435.043465</ele>
        <time>2023-08-16T10:07:01.742Z</time>
      </trkpt>
      <trkpt lat="48.561546" lon="15.756558">
        <ele>433.833186</ele>
        <time>2023-08-16T10:07:07.902Z</time>
      </trkpt>
      <trkpt lat="48.561757" lon="15.756716">
        <ele>433.010271</ele>
        <time>2023-08-16T10:07:12.192Z</time>
      </trkpt>
      <trkpt lat="48.562617" lon="15.757076">
        <ele>431.819463</ele>
        <time>2023-08-16T10:07:29.369Z</time>
      </trkpt>
      <trkpt lat="48.562832" lon="15.757186">
        <ele>431.590187</ele>
        <time>2023-08-16T10:07:33.945Z</time>
      </trkpt>
      <trkpt lat="48.562959" lon="15.757306">
        <ele>431.438892</ele>
        <time>2023-08-16T10:07:37.057Z</time>
      </trkpt>
      <trkpt lat="48.563691" lon="15.755812">
        <ele>430.457416</ele>
        <time>2023-08-16T10:08:02.759Z</time>
      </trkpt>
      <trkpt lat="48.563855" lon="15.755347">
        <ele>430.261049</ele>
        <time>2023-08-16T10:08:10.019Z</time>
      </trkpt>
      <trkpt lat="48.564002" lon="15.754629">
        <ele>429.980957</ele>
        <time>2023-08-16T10:08:20.289Z</time>
      </trkpt>
      <trkpt lat="48.564058" lon="15.754200">
        <ele>429.818000</ele>
        <time>2023-08-16T10:08:26.261Z</time>
      </trkpt>
      <trkpt lat="48.564228" lon="15.751783">
        <ele>428.921122</ele>
        <time>2023-08-16T10:08:59.736Z</time>
      </trkpt>
      <trkpt lat="48.564344" lon="15.750964">
        <ele>428.738116</ele>
        <time>2023-08-16T10:09:11.304Z</time>
      </trkpt>
      <trkpt lat="48.564484" lon="15.750236">
        <ele>428.679966</ele>
        <time>2023-08-16T10:09:21.846Z</time>
      </trkpt>
      <trkpt lat="48.564515" lon="15.749898">
        <ele>428.653793</ele>
        <time>2023-08-16T10:09:26.667Z</time>
      </trkpt>
      <trkpt lat="48.564563" lon="15.748490">
        <ele>428.745414</ele>
        <time>2023-08-16T10:09:48.332Z</time>
      </trkpt>
      <trkpt lat="48.564581" lon="15.748190">
        <ele>428.993028</ele>
        <time>2023-08-16T10:09:53.410Z</time>
      </trkpt>
      <trkpt lat="48.564644" lon="15.747768">
        <ele>429.348632</ele>
        <time>2023-08-16T10:10:00.910Z</time>
      </trkpt>
      <trkpt lat="48.564644" lon="15.747761">
        <ele>429.354386</ele>
        <time>2023-08-16T10:10:01.025Z</time>
      </trkpt>
      <trkpt lat="48.564726" lon="15.747368">
        <ele>429.693111</ele>
        <time>2023-08-16T10:10:08.589Z</time>
      </trkpt>
      <trkpt lat="48.564865" lon="15.746906">
        <ele>430.110282</ele>
        <time>2023-08-16T10:10:18.636Z</time>
      </trkpt>
      <trkpt lat="48.564986" lon="15.746583">
        <ele>430.415378</ele>
        <time>2023-08-16T10:10:26.297Z</time>
      </trkpt>
      <trkpt lat="48.565238" lon="15.746045">
        <ele>430.985036</ele>
        <time>2023-08-16T10:10:40.607Z</time>
      </trkpt>
      <trkpt lat="48.565345" lon="15.745620">
        <ele>431.423745</ele>
        <time>2023-08-16T10:10:50.465Z</time>
      </trkpt>
      <trkpt lat="48.565542" lon="15.744874">
        <ele>432.198669</ele>
        <time>2023-08-16T10:11:07.291Z</time>
      </trkpt>
      <trkpt lat="48.565859" lon="15.744003">
        <ele>433.157702</ele>
        <time>2023-08-16T10:11:25.912Z</time>
      </trkpt>
      <trkpt lat="48.565949" lon="15.743660">
        <ele>433.385771</ele>
        <time>2023-08-16T10:11:32.172Z</time>
      </trkpt>
      <trkpt lat="48.566007" lon="15.743308">
        <ele>433.262453</ele>
        <time>2023-08-16T10:11:38.292Z</time>
      </trkpt>
      <trkpt lat="48.566155" lon="15.741742">
        <ele>432.724681</ele>
        <time>2023-08-16T10:12:00.517Z</time>
      </trkpt>
      <trkpt lat="48.566217" lon="15.741410">
        <ele>432.607408</ele>
        <time>2023-08-16T10:12:04.883Z</time>
      </trkpt>
      <trkpt lat="48.566325" lon="15.741032">
        <ele>432.289914</ele>
        <time>2023-08-16T10:12:09.960Z</time>
      </trkpt>
      <trkpt lat="48.566587" lon="15.740303">
        <ele>430.198298</ele>
        <time>2023-08-16T10:12:19.924Z</time>
      </trkpt>
      <trkpt lat="48.566756" lon="15.739756">
        <ele>428.676236</ele>
        <time>2023-08-16T10:12:26.943Z</time>
      </trkpt>
      <trkpt lat="48.567276" lon="15.737830">
        <ele>420.826809</ele>
        <time>2023-08-16T10:12:48.273Z</time>
      </trkpt>
      <trkpt lat="48.567460" lon="15.737530">
        <ele>418.580259</ele>
        <time>2023-08-16T10:12:52.200Z</time>
      </trkpt>
      <trkpt lat="48.567657" lon="15.737270">
        <ele>416.409437</ele>
        <time>2023-08-16T10:12:55.952Z</time>
      </trkpt>
      <trkpt lat="48.567808" lon="15.736887">
        <ele>413.960886</ele>
        <time>2023-08-16T10:13:00.152Z</time>
      </trkpt>
      <trkpt lat="48.568055" lon="15.736013">
        <ele>408.842547</ele>
        <time>2023-08-16T10:13:09.022Z</time>
      </trkpt>
      <trkpt lat="48.568462" lon="15.734281">
        <ele>399.266299</ele>
        <time>2023-08-16T10:13:26.416Z</time>
      </trkpt>
      <trkpt lat="48.568606" lon="15.732495">
        <ele>396.896224</ele>
        <time>2023-08-16T10:13:48.221Z</time>
      </trkpt>
      <trkpt lat="48.568686" lon="15.731960">
        <ele>397.043933</ele>
        <time>2023-08-16T10:14:01.287Z</time>
      </trkpt>
      <trkpt lat="48.568318" lon="15.731724">
        <ele>397.206625</ele>
        <time>2023-08-16T10:14:16.967Z</time>
      </trkpt>
      <trkpt lat="48.567810" lon="15.731640">
        <ele>398.080943</ele>
        <time>2023-08-16T10:14:37.624Z</time>
      </trkpt>
      <trkpt lat="48.567693" lon="15.731480">
        <ele>398.472768</ele>
        <time>2023-08-16T10:14:43.662Z</time>
      </trkpt>
      <trkpt lat="48.567643" lon="15.731306">
        <ele>398.784475</ele>
        <time>2023-08-16T10:14:49.514Z</time>
      </trkpt>
      <trkpt lat="48.567671" lon="15.731009">
        <ele>399.277426</ele>
        <time>2023-08-16T10:14:57.408Z</time>
      </trkpt>
      <trkpt lat="48.567813" lon="15.730434">
        <ele>400.285903</ele>
        <time>2023-08-16T10:15:14.369Z</time>
      </trkpt>
      <trkpt lat="48.567717" lon="15.730022">
        <ele>401.003634</ele>
        <time>2023-08-16T10:15:23.995Z</time>
      </trkpt>
      <trkpt lat="48.567058" lon="15.728288">
        <ele>400.759194</ele>
        <time>2023-08-16T10:15:50.362Z</time>
      </trkpt>
      <trkpt lat="48.566558" lon="15.727645">
        <ele>400.122867</ele>
        <time>2023-08-16T10:16:03.189Z</time>
      </trkpt>
      <trkpt lat="48.564513" lon="15.725842">
        <ele>394.290017</ele>
        <time>2023-08-16T10:16:46.754Z</time>
      </trkpt>
      <trkpt lat="48.564343" lon="15.725559">
        <ele>393.087808</ele>
        <time>2023-08-16T10:16:50.806Z</time>
      </trkpt>
      <trkpt lat="48.563934" lon="15.724426">
        <ele>389.028226</ele>
        <time>2023-08-16T10:17:04.059Z</time>
      </trkpt>
      <trkpt lat="48.563817" lon="15.724243">
        <ele>388.227846</ele>
        <time>2023-08-16T10:17:06.644Z</time>
      </trkpt>
      <trkpt lat="48.563706" lon="15.724097">
        <ele>387.278590</ele>
        <time>2023-08-16T10:17:08.908Z</time>
      </trkpt>
      <trkpt lat="48.563125" lon="15.723644">
        <ele>381.945459</ele>
        <time>2023-08-16T10:17:18.660Z</time>
      </trkpt>
      <trkpt lat="48.562777" lon="15.723185">
        <ele>378.177374</ele>
        <time>2023-08-16T10:17:25.401Z</time>
      </trkpt>
      <trkpt lat="48.562502" lon="15.722795">
        <ele>375.100849</ele>
        <time>2023-08-16T10:17:30.816Z</time>
      </trkpt>
      <trkpt lat="48.562468" lon="15.722409">
        <ele>372.932877</ele>
        <time>2023-08-16T10:17:34.488Z</time>
      </trkpt>
      <trkpt lat="48.562508" lon="15.721976">
        <ele>369.820652</ele>
        <time>2023-08-16T10:17:38.589Z</time>
      </trkpt>
      <trkpt lat="48.562601" lon="15.721503">
        <ele>366.308116</ele>
        <time>2023-08-16T10:17:43.201Z</time>
      </trkpt>
      <trkpt lat="48.562826" lon="15.720602">
        <ele>359.452889</ele>
        <time>2023-08-16T10:17:52.105Z</time>
      </trkpt>
      <trkpt lat="48.562968" lon="15.720178">
        <ele>356.070171</ele>
        <time>2023-08-16T10:17:56.459Z</time>
      </trkpt>
      <trkpt lat="48.563304" lon="15.719325">
        <ele>349.977491</ele>
        <time>2023-08-16T10:18:05.640Z</time>
      </trkpt>
      <trkpt lat="48.563426" lon="15.718884">
        <ele>347.257405</ele>
        <time>2023-08-16T10:18:10.144Z</time>
      </trkpt>
      <trkpt lat="48.563702" lon="15.718103">
        <ele>342.218928</ele>
        <time>2023-08-16T10:18:18.736Z</time>
      </trkpt>
      <trkpt lat="48.564883" lon="15.715650">
        <ele>330.280285</ele>
        <time>2023-08-16T10:18:49.837Z</time>
      </trkpt>
      <trkpt lat="48.565869" lon="15.714398">
        <ele>327.386505</ele>
        <time>2023-08-16T10:19:12.576Z</time>
      </trkpt>
      <trkpt lat="48.565224" lon="15.713710">
        <ele>326.257270</ele>
        <time>2023-08-16T10:19:30.096Z</time>
      </trkpt>
      <trkpt lat="48.565110" lon="15.713633">
        <ele>326.419065</ele>
        <time>2023-08-16T10:19:33.597Z</time>
      </trkpt>
      <trkpt lat="48.563583" lon="15.712878">
        <ele>328.500836</ele>
        <time>2023-08-16T10:20:22.308Z</time>
      </trkpt>
      <trkpt lat="48.562949" lon="15.712635">
        <ele>329.066869</ele>
        <time>2023-08-16T10:20:40.619Z</time>
      </trkpt>
      <trkpt lat="48.563649" lon="15.709890">
        <ele>330.288588</ele>
        <time>2023-08-16T10:21:31.106Z</time>
      </trkpt>
      <trkpt lat="48.563846" lon="15.709072">
        <ele>330.458670</ele>
        <time>2023-08-16T10:21:45.256Z</time>
      </trkpt>
      <trkpt lat="48.564471" lon="15.706488">
        <ele>330.469903</ele>
        <time>2023-08-16T10:22:27.326Z</time>
      </trkpt>
      <trkpt lat="48.564778" lon="15.704339">
        <ele>329.892209</ele>
        <time>2023-08-16T10:22:59.737Z</time>
      </trkpt>
      <trkpt lat="48.565647" lon="15.698769">
        <ele>327.312017</ele>
        <time>2023-08-16T10:24:19.963Z</time>
      </trkpt>
      <trkpt lat="48.565688" lon="15.698685">
        <ele>327.269286</ele>
        <time>2023-08-16T10:24:21.487Z</time>
      </trkpt>
      <trkpt lat="48.565764" lon="15.698662">
        <ele>327.221336</ele>
        <time>2023-08-16T10:24:23.194Z</time>
      </trkpt>
      <trkpt lat="48.568370" lon="15.699614">
        <ele>325.692122</ele>
        <time>2023-08-16T10:25:23.687Z</time>
      </trkpt>
      <trkpt lat="48.568476" lon="15.699592">
        <ele>325.502124</ele>
        <time>2023-08-16T10:25:25.882Z</time>
      </trkpt>
      <trkpt lat="48.567858" lon="15.698333">
        <ele>323.660113</ele>
        <time>2023-08-16T10:25:45.224Z</time>
      </trkpt>
      <trkpt lat="48.569093" lon="15.698071">
        <ele>317.775004</ele>
        <time>2023-08-16T10:26:22.024Z</time>
      </trkpt>
      <trkpt lat="48.569144" lon="15.698053">
        <ele>317.498040</ele>
        <time>2023-08-16T10:26:23.495Z</time>
      </trkpt>
      <trkpt lat="48.569215" lon="15.697961">
        <ele>317.003442</ele>
        <time>2023-08-16T10:26:26.114Z</time>
      </trkpt>
      <trkpt lat="48.569499" lon="15.697591">
        <ele>315.020487</ele>
        <time>2023-08-16T10:26:32.068Z</time>
      </trkpt>
      <trkpt lat="48.571450" lon="15.695492">
        <ele>296.863816</ele>
        <time>2023-08-16T10:27:09.024Z</time>
      </trkpt>
      <trkpt lat="48.571900" lon="15.695197">
        <ele>292.972244</ele>
        <time>2023-08-16T10:27:16.547Z</time>
      </trkpt>
      <trkpt lat="48.572412" lon="15.694987">
        <ele>288.763257</ele>
        <time>2023-08-16T10:27:24.712Z</time>
      </trkpt>
      <trkpt lat="48.573310" lon="15.694600">
        <ele>281.903891</ele>
        <time>2023-08-16T10:27:39.150Z</time>
      </trkpt>
      <trkpt lat="48.574874" lon="15.694137">
        <ele>271.674210</ele>
        <time>2023-08-16T10:28:04.490Z</time>
      </trkpt>
      <trkpt lat="48.575042" lon="15.694062">
        <ele>270.876061</ele>
        <time>2023-08-16T10:28:07.386Z</time>
      </trkpt>
      <trkpt lat="48.575199" lon="15.693888">
        <ele>269.989016</ele>
        <time>2023-08-16T10:28:10.633Z</time>
      </trkpt>
      <trkpt lat="48.575340" lon="15.693636">
        <ele>268.994111</ele>
        <time>2023-08-16T10:28:14.311Z</time>
      </trkpt>
      <trkpt lat="48.575574" lon="15.693101">
        <ele>267.060758</ele>
        <time>2023-08-16T10:28:21.618Z</time>
      </trkpt>
      <trkpt lat="48.575706" lon="15.692976">
        <ele>266.351032</ele>
        <time>2023-08-16T10:28:24.387Z</time>
      </trkpt>
      <trkpt lat="48.575945" lon="15.692932">
        <ele>265.254032</ele>
        <time>2023-08-16T10:28:28.694Z</time>
      </trkpt>
      <trkpt lat="48.576909" lon="15.692939">
        <ele>263.054766</ele>
        <time>2023-08-16T10:28:46.658Z</time>
      </trkpt>
      <trkpt lat="48.576885" lon="15.692588">
        <ele>262.566875</ele>
        <time>2023-08-16T10:28:50.958Z</time>
      </trkpt>
      <trkpt lat="48.576708" lon="15.691755">
        <ele>261.357195</ele>
        <time>2023-08-16T10:29:01.817Z</time>
      </trkpt>
      <trkpt lat="48.576711" lon="15.691579">
        <ele>261.141071</ele>
        <time>2023-08-16T10:29:04.127Z</time>
      </trkpt>
      <trkpt lat="48.576856" lon="15.691078">
        <ele>260.897062</ele>
        <time>2023-08-16T10:29:11.330Z</time>
      </trkpt>
      <trkpt lat="48.576927" lon="15.690832">
        <ele>260.777302</ele>
        <time>2023-08-16T10:29:14.872Z</time>
      </trkpt>
      <trkpt lat="48.576878" lon="15.689994">
        <ele>260.401914</ele>
        <time>2023-08-16T10:29:26.955Z</time>
      </trkpt>
      <trkpt lat="48.576747" lon="15.689491">
        <ele>260.160703</ele>
        <time>2023-08-16T10:29:34.614Z</time>
      </trkpt>
      <trkpt lat="48.576638" lon="15.689184">
        <ele>260.005235</ele>
        <time>2023-08-16T10:29:39.552Z</time>
      </trkpt>
      <trkpt lat="48.576576" lon="15.688027">
        <ele>260.218216</ele>
        <time>2023-08-16T10:29:58.460Z</time>
      </trkpt>
      <trkpt lat="48.576526" lon="15.687110">
        <ele>260.469049</ele>
        <time>2023-08-16T10:30:14.718Z</time>
      </trkpt>
      <trkpt lat="48.576478" lon="15.686808">
        <ele>260.553721</ele>
        <time>2023-08-16T10:30:20.240Z</time>
      </trkpt>
      <trkpt lat="48.576315" lon="15.686329">
        <ele>260.753490</ele>
        <time>2023-08-16T10:30:28.958Z</time>
      </trkpt>
      <trkpt lat="48.576186" lon="15.685805">
        <ele>261.343335</ele>
        <time>2023-08-16T10:30:38.611Z</time>
      </trkpt>
      <trkpt lat="48.576250" lon="15.685732">
        <ele>261.471185</ele>
        <time>2023-08-16T10:30:40.578Z</time>
      </trkpt>
      <trkpt lat="48.576266" lon="15.685619">
        <ele>261.593099</ele>
        <time>2023-08-16T10:30:42.862Z</time>
      </trkpt>
      <trkpt lat="48.576290" lon="15.685579">
        <ele>261.650067</ele>
        <time>2023-08-16T10:30:43.955Z</time>
      </trkpt>
      <trkpt lat="48.576330" lon="15.685518">
        <ele>261.740674</ele>
        <time>2023-08-16T10:30:45.720Z</time>
      </trkpt>
      <trkpt lat="48.576347" lon="15.685492">
        <ele>261.779238</ele>
        <time>2023-08-16T10:30:46.445Z</time>
      </trkpt>
      <trkpt lat="48.576249" lon="15.685027">
        <ele>262.294096</ele>
        <time>2023-08-16T10:30:56.839Z</time>
      </trkpt>
      <trkpt lat="48.576267" lon="15.684950">
        <ele>262.380252</ele>
        <time>2023-08-16T10:30:58.717Z</time>
      </trkpt>
      <trkpt lat="48.576496" lon="15.684735">
        <ele>262.810119</ele>
        <time>2023-08-16T10:31:08.284Z</time>
      </trkpt>
      <trkpt lat="48.576566" lon="15.684626">
        <ele>262.970376</ele>
        <time>2023-08-16T10:31:12.038Z</time>
      </trkpt>
      <trkpt lat="48.576572" lon="15.684528">
        <ele>263.074206</ele>
        <time>2023-08-16T10:31:14.477Z</time>
      </trkpt>
      <trkpt lat="48.576487" lon="15.683898">
        <ele>263.761726</ele>
        <time>2023-08-16T10:31:35.172Z</time>
      </trkpt>
      <trkpt lat="48.576407" lon="15.683275">
        <ele>264.461685</ele>
        <time>2023-08-16T10:31:54.448Z</time>
      </trkpt>
      <trkpt lat="48.576294" lon="15.682878">
        <ele>264.938358</ele>
        <time>2023-08-16T10:32:07.019Z</time>
      </trkpt>
      <trkpt lat="48.576274" lon="15.682263">
        <ele>265.617492</ele>
        <time>2023-08-16T10:32:25.333Z</time>
      </trkpt>
      <trkpt lat="48.576242" lon="15.681804">
        <ele>266.126550</ele>
        <time>2023-08-16T10:32:39.394Z</time>
      </trkpt>
      <trkpt lat="48.576265" lon="15.680517">
        <ele>266.748498</ele>
        <time>2023-08-16T10:33:16.281Z</time>
      </trkpt>
      <trkpt lat="48.576405" lon="15.679316">
        <ele>267.017956</ele>
        <time>2023-08-16T10:33:45.983Z</time>
      </trkpt>
      <trkpt lat="48.576474" lon="15.678336">
        <ele>267.116156</ele>
        <time>2023-08-16T10:34:09.234Z</time>
      </trkpt>
      <trkpt lat="48.576438" lon="15.677951">
        <ele>267.083277</ele>
        <time>2023-08-16T10:34:18.763Z</time>
      </trkpt>
      <trkpt lat="48.576375" lon="15.677668">
        <ele>267.058029</ele>
        <time>2023-08-16T10:34:26.063Z</time>
      </trkpt>
      <trkpt lat="48.576304" lon="15.676780">
        <ele>266.982395</ele>
        <time>2023-08-16T10:34:48.638Z</time>
      </trkpt>
      <trkpt lat="48.576223" lon="15.676066">
        <ele>266.921138</ele>
        <time>2023-08-16T10:35:06.601Z</time>
      </trkpt>
      <trkpt lat="48.576043" lon="15.675353">
        <ele>266.399495</ele>
        <time>2023-08-16T10:35:24.315Z</time>
      </trkpt>
      <trkpt lat="48.575912" lon="15.674959">
        <ele>266.090644</ele>
        <time>2023-08-16T10:35:34.314Z</time>
      </trkpt>
      <trkpt lat="48.575733" lon="15.674077">
        <ele>265.444464</ele>
        <time>2023-08-16T10:35:55.087Z</time>
      </trkpt>
      <trkpt lat="48.575255" lon="15.672724">
        <ele>263.885829</ele>
        <time>2023-08-16T10:36:28.905Z</time>
      </trkpt>
      <trkpt lat="48.574682" lon="15.671901">
        <ele>262.420780</ele>
        <time>2023-08-16T10:36:54.281Z</time>
      </trkpt>
      <trkpt lat="48.574350" lon="15.671599">
        <ele>261.702603</ele>
        <time>2023-08-16T10:37:06.935Z</time>
      </trkpt>
      <trkpt lat="48.574132" lon="15.671056">
        <ele>261.061824</ele>
        <time>2023-08-16T10:37:20.997Z</time>
      </trkpt>
      <trkpt lat="48.573920" lon="15.670797">
        <ele>260.648639</ele>
        <time>2023-08-16T10:37:30.225Z</time>
      </trkpt>
      <trkpt lat="48.573550" lon="15.670475">
        <ele>260.001494</ele>
        <time>2023-08-16T10:37:44.826Z</time>
      </trkpt>
      <trkpt lat="48.572950" lon="15.668900">
        <ele>257.074449</ele>
        <time>2023-08-16T10:38:24.964Z</time>
      </trkpt>
      <trkpt lat="48.572535" lon="15.667640">
        <ele>253.655536</ele>
        <time>2023-08-16T10:38:52.650Z</time>
      </trkpt>
      <trkpt lat="48.572107" lon="15.666560">
        <ele>250.267696</ele>
        <time>2023-08-16T10:39:16.110Z</time>
      </trkpt>
      <trkpt lat="48.571484" lon="15.665465">
        <ele>246.100292</ele>
        <time>2023-08-16T10:39:43.644Z</time>
      </trkpt>
      <trkpt lat="48.571466" lon="15.665364">
        <ele>245.798443</ele>
        <time>2023-08-16T10:39:45.717Z</time>
      </trkpt>
      <trkpt lat="48.571538" lon="15.664512">
        <ele>245.060645</ele>
        <time>2023-08-16T10:40:03.311Z</time>
      </trkpt>
      <trkpt lat="48.571539" lon="15.664497">
        <ele>245.080881</ele>
        <time>2023-08-16T10:40:03.636Z</time>
      </trkpt>
      <trkpt lat="48.571786" lon="15.662360">
        <ele>247.992742</ele>
        <time>2023-08-16T10:41:14.149Z</time>
      </trkpt>
      <trkpt lat="48.571775" lon="15.662154">
        <ele>248.623470</ele>
        <time>2023-08-16T10:41:24.045Z</time>
      </trkpt>
      <trkpt lat="48.572004" lon="15.661613">
        <ele>252.169085</ele>
        <time>2023-08-16T10:41:58.205Z</time>
      </trkpt>
      <trkpt lat="48.572156" lon="15.661396">
        <ele>253.913684</ele>
        <time>2023-08-16T10:42:15.912Z</time>
      </trkpt>
      <trkpt lat="48.572390" lon="15.661335">
        <ele>255.894919</ele>
        <time>2023-08-16T10:42:35.449Z</time>
      </trkpt>
      <trkpt lat="48.572652" lon="15.661458">
        <ele>258.183982</ele>
        <time>2023-08-16T10:42:57.272Z</time>
      </trkpt>
      <trkpt lat="48.573002" lon="15.661969">
        <ele>262.244325</ele>
        <time>2023-08-16T10:43:37.596Z</time>
      </trkpt>
      <trkpt lat="48.573222" lon="15.662361">
        <ele>265.208383</ele>
        <time>2023-08-16T10:44:07.245Z</time>
      </trkpt>
      <trkpt lat="48.573323" lon="15.662350">
        <ele>266.108913</ele>
        <time>2023-08-16T10:44:16.143Z</time>
      </trkpt>
      <trkpt lat="48.573373" lon="15.662192">
        <ele>267.139478</ele>
        <time>2023-08-16T10:44:26.276Z</time>
      </trkpt>
      <trkpt lat="48.573285" lon="15.661559">
        <ele>270.945504</ele>
        <time>2023-08-16T10:45:03.964Z</time>
      </trkpt>
      <trkpt lat="48.573310" lon="15.661361">
        <ele>272.131599</ele>
        <time>2023-08-16T10:45:15.551Z</time>
      </trkpt>
      <trkpt lat="48.573386" lon="15.661268">
        <ele>273.001235</ele>
        <time>2023-08-16T10:45:23.350Z</time>
      </trkpt>
      <trkpt lat="48.573490" lon="15.661288">
        <ele>273.933572</ele>
        <time>2023-08-16T10:45:31.644Z</time>
      </trkpt>
      <trkpt lat="48.574438" lon="15.661866">
        <ele>282.484550</ele>
        <time>2023-08-16T10:46:46.881Z</time>
      </trkpt>
      <trkpt lat="48.574561" lon="15.662103">
        <ele>284.009358</ele>
        <time>2023-08-16T10:47:02.142Z</time>
      </trkpt>
      <trkpt lat="48.574603" lon="15.662344">
        <ele>285.270972</ele>
        <time>2023-08-16T10:47:14.941Z</time>
      </trkpt>
      <trkpt lat="48.574706" lon="15.664222">
        <ele>294.386720</ele>
        <time>2023-08-16T10:48:50.837Z</time>
      </trkpt>
      <trkpt lat="48.574658" lon="15.665211">
        <ele>298.281030</ele>
        <time>2023-08-16T10:49:35.170Z</time>
      </trkpt>
      <trkpt lat="48.574713" lon="15.665606">
        <ele>299.866201</ele>
        <time>2023-08-16T10:49:52.707Z</time>
      </trkpt>
      <trkpt lat="48.574733" lon="15.666031">
        <ele>301.539421</ele>
        <time>2023-08-16T10:50:10.761Z</time>
      </trkpt>
      <trkpt lat="48.574713" lon="15.666375">
        <ele>302.895539</ele>
        <time>2023-08-16T10:50:24.929Z</time>
      </trkpt>
      <trkpt lat="48.574739" lon="15.666647">
        <ele>303.735110</ele>
        <time>2023-08-16T10:50:36.054Z</time>
      </trkpt>
      <trkpt lat="48.574855" lon="15.667250">
        <ele>304.639597</ele>
        <time>2023-08-16T10:50:59.681Z</time>
      </trkpt>
      <trkpt lat="48.574979" lon="15.667631">
        <ele>305.251161</ele>
        <time>2023-08-16T10:51:14.280Z</time>
      </trkpt>
      <trkpt lat="48.575527" lon="15.668548">
        <ele>307.030926</ele>
        <time>2023-08-16T10:51:50.587Z</time>
      </trkpt>
      <trkpt lat="48.575907" lon="15.668869">
        <ele>306.886296</ele>
        <time>2023-08-16T10:52:06.963Z</time>
      </trkpt>
      <trkpt lat="48.576403" lon="15.669511">
        <ele>304.981582</ele>
        <time>2023-08-16T10:52:28.723Z</time>
      </trkpt>
      <trkpt lat="48.576898" lon="15.670021">
        <ele>303.234248</ele>
        <time>2023-08-16T10:52:46.504Z</time>
      </trkpt>
      <trkpt lat="48.576994" lon="15.670152">
        <ele>302.857004</ele>
        <time>2023-08-16T10:52:50.226Z</time>
      </trkpt>
      <trkpt lat="48.577122" lon="15.670792">
        <ele>300.588552</ele>
        <time>2023-08-16T10:53:02.631Z</time>
      </trkpt>
      <trkpt lat="48.576970" lon="15.672070">
        <ele>294.575079</ele>
        <time>2023-08-16T10:53:26.129Z</time>
      </trkpt>
      <trkpt lat="48.576960" lon="15.672568">
        <ele>292.267705</ele>
        <time>2023-08-16T10:53:34.996Z</time>
      </trkpt>
      <trkpt lat="48.576960" lon="15.673213">
        <ele>289.296848</ele>
        <time>2023-08-16T10:53:46.357Z</time>
      </trkpt>
      <trkpt lat="48.576996" lon="15.673938">
        <ele>286.068276</ele>
        <time>2023-08-16T10:53:59.150Z</time>
      </trkpt>
      <trkpt lat="48.577081" lon="15.674470">
        <ele>283.637908</ele>
        <time>2023-08-16T10:54:08.893Z</time>
      </trkpt>
      <trkpt lat="48.576964" lon="15.676362">
        <ele>277.070072</ele>
        <time>2023-08-16T10:54:44.063Z</time>
      </trkpt>
      <trkpt lat="48.577103" lon="15.678634">
        <ele>275.190583</ele>
        <time>2023-08-16T10:55:37.364Z</time>
      </trkpt>
      <trkpt lat="48.578069" lon="15.678587">
        <ele>278.892142</ele>
        <time>2023-08-16T10:56:31.784Z</time>
      </trkpt>
      <trkpt lat="48.578683" lon="15.678954">
        <ele>281.420865</ele>
        <time>2023-08-16T10:57:14.339Z</time>
      </trkpt>
      <trkpt lat="48.578851" lon="15.678876">
        <ele>282.018318</ele>
        <time>2023-08-16T10:57:23.555Z</time>
      </trkpt>
      <trkpt lat="48.579378" lon="15.678873">
        <ele>283.490114</ele>
        <time>2023-08-16T10:57:48.317Z</time>
      </trkpt>
      <trkpt lat="48.579573" lon="15.678732">
        <ele>284.093807</ele>
        <time>2023-08-16T10:57:56.818Z</time>
      </trkpt>
      <trkpt lat="48.580309" lon="15.677968">
        <ele>286.587303</ele>
        <time>2023-08-16T10:58:25.132Z</time>
      </trkpt>
      <trkpt lat="48.580508" lon="15.677844">
        <ele>286.848296</ele>
        <time>2023-08-16T10:58:30.890Z</time>
      </trkpt>
      <trkpt lat="48.581428" lon="15.677972">
        <ele>286.925316</ele>
        <time>2023-08-16T10:58:51.597Z</time>
      </trkpt>
      <trkpt lat="48.582626" lon="15.678159">
        <ele>288.010773</ele>
        <time>2023-08-16T10:59:18.573Z</time>
      </trkpt>
      <trkpt lat="48.583610" lon="15.676236">
        <ele>292.718301</ele>
        <time>2023-08-16T11:00:19.241Z</time>
      </trkpt>
      <trkpt lat="48.584812" lon="15.676434">
        <ele>300.425861</ele>
        <time>2023-08-16T11:01:43.828Z</time>
      </trkpt>
      <trkpt lat="48.586152" lon="15.676679">
        <ele>311.941396</ele>
        <time>2023-08-16T11:03:35.643Z</time>
      </trkpt>
      <trkpt lat="48.586342" lon="15.676812">
        <ele>313.870806</ele>
        <time>2023-08-16T11:03:53.603Z</time>
      </trkpt>
      <trkpt lat="48.586746" lon="15.676903">
        <ele>317.634702</ele>
        <time>2023-08-16T11:04:28.741Z</time>
      </trkpt>
      <trkpt lat="48.586950" lon="15.676917">
        <ele>319.464547</ele>
        <time>2023-08-16T11:04:46.206Z</time>
      </trkpt>
      <trkpt lat="48.587098" lon="15.677058">
        <ele>320.889050</ele>
        <time>2023-08-16T11:05:01.198Z</time>
      </trkpt>
      <trkpt lat="48.587168" lon="15.677317">
        <ele>322.396079</ele>
        <time>2023-08-16T11:05:16.625Z</time>
      </trkpt>
      <trkpt lat="48.587186" lon="15.677779">
        <ele>324.888901</ele>
        <time>2023-08-16T11:05:41.327Z</time>
      </trkpt>
      <trkpt lat="48.587502" lon="15.678088">
        <ele>327.953435</ele>
        <time>2023-08-16T11:06:10.645Z</time>
      </trkpt>
      <trkpt lat="48.588044" lon="15.678691">
        <ele>333.433206</ele>
        <time>2023-08-16T11:07:00.612Z</time>
      </trkpt>
      <trkpt lat="48.588068" lon="15.677962">
        <ele>335.762188</ele>
        <time>2023-08-16T11:07:33.608Z</time>
      </trkpt>
      <trkpt lat="48.588159" lon="15.677681">
        <ele>336.707185</ele>
        <time>2023-08-16T11:07:47.442Z</time>
      </trkpt>
      <trkpt lat="48.588607" lon="15.677756">
        <ele>338.765365</ele>
        <time>2023-08-16T11:08:15.173Z</time>
      </trkpt>
      <trkpt lat="48.588875" lon="15.677669">
        <ele>340.017011</ele>
        <time>2023-08-16T11:08:31.137Z</time>
      </trkpt>
      <trkpt lat="48.589087" lon="15.677499">
        <ele>341.112799</ele>
        <time>2023-08-16T11:08:44.167Z</time>
      </trkpt>
      <trkpt lat="48.589559" lon="15.675375">
        <ele>341.785621</ele>
        <time>2023-08-16T11:09:45.416Z</time>
      </trkpt>
      <trkpt lat="48.589658" lon="15.674793">
        <ele>341.741773</ele>
        <time>2023-08-16T11:09:58.045Z</time>
      </trkpt>
      <trkpt lat="48.589734" lon="15.674481">
        <ele>341.203084</ele>
        <time>2023-08-16T11:10:04.865Z</time>
      </trkpt>
      <trkpt lat="48.589844" lon="15.674353">
        <ele>340.602582</ele>
        <time>2023-08-16T11:10:09.081Z</time>
      </trkpt>
      <trkpt lat="48.589932" lon="15.672718">
        <ele>335.908637</ele>
        <time>2023-08-16T11:10:27.393Z</time>
      </trkpt>
      <trkpt lat="48.589957" lon="15.671356">
        <ele>332.321939</ele>
        <time>2023-08-16T11:10:42.284Z</time>
      </trkpt>
      <trkpt lat="48.589964" lon="15.670968">
        <ele>331.389955</ele>
        <time>2023-08-16T11:10:46.602Z</time>
      </trkpt>
      <trkpt lat="48.590151" lon="15.669490">
        <ele>327.776753</ele>
        <time>2023-08-16T11:11:04.328Z</time>
      </trkpt>
      <trkpt lat="48.590228" lon="15.668544">
        <ele>327.599225</ele>
        <time>2023-08-16T11:11:17.270Z</time>
      </trkpt>
      <trkpt lat="48.590205" lon="15.668269">
        <ele>327.660748</ele>
        <time>2023-08-16T11:11:21.593Z</time>
      </trkpt>
      <trkpt lat="48.590135" lon="15.668199">
        <ele>327.688911</ele>
        <time>2023-08-16T11:11:23.444Z</time>
      </trkpt>
      <trkpt lat="48.590486" lon="15.668119">
        <ele>327.808024</ele>
        <time>2023-08-16T11:11:32.861Z</time>
      </trkpt>
      <trkpt lat="48.591504" lon="15.667333">
        <ele>329.034889</ele>
        <time>2023-08-16T11:12:27.473Z</time>
      </trkpt>
      <trkpt lat="48.591845" lon="15.667000">
        <ele>329.857156</ele>
        <time>2023-08-16T11:12:48.984Z</time>
      </trkpt>
      <trkpt lat="48.592025" lon="15.666738">
        <ele>330.363261</ele>
        <time>2023-08-16T11:13:01.500Z</time>
      </trkpt>
      <trkpt lat="48.592100" lon="15.666790">
        <ele>330.530390</ele>
        <time>2023-08-16T11:13:05.355Z</time>
      </trkpt>
      <trkpt lat="48.592398" lon="15.667196">
        <ele>331.342924</ele>
        <time>2023-08-16T11:13:24.151Z</time>
      </trkpt>
      <trkpt lat="48.592531" lon="15.667411">
        <ele>331.561905</ele>
        <time>2023-08-16T11:13:32.861Z</time>
      </trkpt>
      <trkpt lat="48.592715" lon="15.667794">
        <ele>330.604869</ele>
        <time>2023-08-16T11:13:44.609Z</time>
      </trkpt>
      <trkpt lat="48.592787" lon="15.667852">
        <ele>330.355495</ele>
        <time>2023-08-16T11:13:47.615Z</time>
      </trkpt>
      <trkpt lat="48.593148" lon="15.668007">
        <ele>329.208386</ele>
        <time>2023-08-16T11:14:00.199Z</time>
      </trkpt>
      <trkpt lat="48.593346" lon="15.668264">
        <ele>328.410721</ele>
        <time>2023-08-16T11:14:08.272Z</time>
      </trkpt>
      <trkpt lat="48.593551" lon="15.668502">
        <ele>327.620667</ele>
        <time>2023-08-16T11:14:15.958Z</time>
      </trkpt>
      <trkpt lat="48.593753" lon="15.668677">
        <ele>326.909031</ele>
        <time>2023-08-16T11:14:22.639Z</time>
      </trkpt>
      <trkpt lat="48.593880" lon="15.668851">
        <ele>326.385153</ele>
        <time>2023-08-16T11:14:27.332Z</time>
      </trkpt>
      <trkpt lat="48.593993" lon="15.669063">
        <ele>325.044789</ele>
        <time>2023-08-16T11:14:32.215Z</time>
      </trkpt>
      <trkpt lat="48.594017" lon="15.669204">
        <ele>324.055890</ele>
        <time>2023-08-16T11:14:34.735Z</time>
      </trkpt>
      <trkpt lat="48.594031" lon="15.669603">
        <ele>321.342014</ele>
        <time>2023-08-16T11:14:41.633Z</time>
      </trkpt>
      <trkpt lat="48.593984" lon="15.669908">
        <ele>319.214923</ele>
        <time>2023-08-16T11:14:46.880Z</time>
      </trkpt>
      <trkpt lat="48.593777" lon="15.670718">
        <ele>313.316861</ele>
        <time>2023-08-16T11:15:01.304Z</time>
      </trkpt>
      <trkpt lat="48.593781" lon="15.670830">
        <ele>312.555029</ele>
        <time>2023-08-16T11:15:03.134Z</time>
      </trkpt>
      <trkpt lat="48.593890" lon="15.670963">
        <ele>311.116607</ele>
        <time>2023-08-16T11:15:06.646Z</time>
      </trkpt>
      <trkpt lat="48.594011" lon="15.671058">
        <ele>309.716453</ele>
        <time>2023-08-16T11:15:10.066Z</time>
      </trkpt>
      <trkpt lat="48.594184" lon="15.671072">
        <ele>307.937287</ele>
        <time>2023-08-16T11:15:14.432Z</time>
      </trkpt>
      <trkpt lat="48.594302" lon="15.671015">
        <ele>306.516870</ele>
        <time>2023-08-16T11:15:17.598Z</time>
      </trkpt>
      <trkpt lat="48.594502" lon="15.671001">
        <ele>304.165684</ele>
        <time>2023-08-16T11:15:22.733Z</time>
      </trkpt>
      <trkpt lat="48.594718" lon="15.670936">
        <ele>301.579370</ele>
        <time>2023-08-16T11:15:28.412Z</time>
      </trkpt>
      <trkpt lat="48.594980" lon="15.670585">
        <ele>297.468612</ele>
        <time>2023-08-16T11:15:37.166Z</time>
      </trkpt>
      <trkpt lat="48.595112" lon="15.670425">
        <ele>295.481870</ele>
        <time>2023-08-16T11:15:41.322Z</time>
      </trkpt>
      <trkpt lat="48.595133" lon="15.670346">
        <ele>294.820590</ele>
        <time>2023-08-16T11:15:42.707Z</time>
      </trkpt>
      <trkpt lat="48.595137" lon="15.669883">
        <ele>291.224272</ele>
        <time>2023-08-16T11:15:50.271Z</time>
      </trkpt>
      <trkpt lat="48.595170" lon="15.669754">
        <ele>290.150024</ele>
        <time>2023-08-16T11:15:52.526Z</time>
      </trkpt>
      <trkpt lat="48.595146" lon="15.669381">
        <ele>287.239345</ele>
        <time>2023-08-16T11:15:58.742Z</time>
      </trkpt>
      <trkpt lat="48.595168" lon="15.669022">
        <ele>284.929133</ele>
        <time>2023-08-16T11:16:04.764Z</time>
      </trkpt>
      <trkpt lat="48.595277" lon="15.669017">
        <ele>283.942146</ele>
        <time>2023-08-16T11:16:07.503Z</time>
      </trkpt>
      <trkpt lat="48.595328" lon="15.668982">
        <ele>283.435237</ele>
        <time>2023-08-16T11:16:08.911Z</time>
      </trkpt>
      <trkpt lat="48.595423" lon="15.668904">
        <ele>282.456824</ele>
        <time>2023-08-16T11:16:10.508Z</time>
      </trkpt>
      <trkpt lat="48.595479" lon="15.668873">
        <ele>281.917081</ele>
        <time>2023-08-16T11:16:11.428Z</time>
      </trkpt>
      <trkpt lat="48.595503" lon="15.668863">
        <ele>281.691766</ele>
        <time>2023-08-16T11:16:11.815Z</time>
      </trkpt>
      <trkpt lat="48.595606" lon="15.668821">
        <ele>280.726233</ele>
        <time>2023-08-16T11:16:13.908Z</time>
      </trkpt>
      <trkpt lat="48.595655" lon="15.668798">
        <ele>280.261867</ele>
        <time>2023-08-16T11:16:14.893Z</time>
      </trkpt>
      <trkpt lat="48.595841" lon="15.668702">
        <ele>278.483050</ele>
        <time>2023-08-16T11:16:17.912Z</time>
      </trkpt>
      <trkpt lat="48.596078" lon="15.668518">
        <ele>276.071780</ele>
        <time>2023-08-16T11:16:21.922Z</time>
      </trkpt>
      <trkpt lat="48.596548" lon="15.668345">
        <ele>271.693694</ele>
        <time>2023-08-16T11:16:29.365Z</time>
      </trkpt>
      <trkpt lat="48.596552" lon="15.668431">
        <ele>271.177645</ele>
        <time>2023-08-16T11:16:30.223Z</time>
      </trkpt>
      <trkpt lat="48.596545" lon="15.668664">
        <ele>270.161356</ele>
        <time>2023-08-16T11:16:32.568Z</time>
      </trkpt>
      <trkpt lat="48.596545" lon="15.668705">
        <ele>270.096738</ele>
        <time>2023-08-16T11:16:32.974Z</time>
      </trkpt>
      <trkpt lat="48.596545" lon="15.668818">
        <ele>269.918645</ele>
        <time>2023-08-16T11:16:34.178Z</time>
      </trkpt>
      <trkpt lat="48.596602" lon="15.668954">
        <ele>269.664887</ele>
        <time>2023-08-16T11:16:35.952Z</time>
      </trkpt>
      <trkpt lat="48.596699" lon="15.668851">
        <ele>269.382425</ele>
        <time>2023-08-16T11:16:37.843Z</time>
      </trkpt>
      <trkpt lat="48.596850" lon="15.668750">
        <ele>268.988949</ele>
        <time>2023-08-16T11:16:40.608Z</time>
      </trkpt>
      <trkpt lat="48.596576" lon="15.667556">
        <ele>266.997091</ele>
        <time>2023-08-16T11:16:57.359Z</time>
      </trkpt>
      <trkpt lat="48.596541" lon="15.667389">
        <ele>266.720992</ele>
        <time>2023-08-16T11:17:00.023Z</time>
      </trkpt>
      <trkpt lat="48.596483" lon="15.667000">
        <ele>266.092523</ele>
        <time>2023-08-16T11:17:06.556Z</time>
      </trkpt>
      <trkpt lat="48.596444" lon="15.666494">
        <ele>265.698642</ele>
        <time>2023-08-16T11:17:14.210Z</time>
      </trkpt>
      <trkpt lat="48.596421" lon="15.665514">
        <ele>265.029592</ele>
        <time>2023-08-16T11:17:27.935Z</time>
      </trkpt>
      <trkpt lat="48.596469" lon="15.664796">
        <ele>264.537223</ele>
        <time>2023-08-16T11:17:37.489Z</time>
      </trkpt>
      <trkpt lat="48.596578" lon="15.664034">
        <ele>263.668570</ele>
        <time>2023-08-16T11:17:46.714Z</time>
      </trkpt>
      <trkpt lat="48.596636" lon="15.663610">
        <ele>262.710084</ele>
        <time>2023-08-16T11:17:51.532Z</time>
      </trkpt>
      <trkpt lat="48.596752" lon="15.662782">
        <ele>260.836452</ele>
        <time>2023-08-16T11:18:00.780Z</time>
      </trkpt>
      <trkpt lat="48.596771" lon="15.662533">
        <ele>260.281581</ele>
        <time>2023-08-16T11:18:03.507Z</time>
      </trkpt>
      <trkpt lat="48.596732" lon="15.662351">
        <ele>259.858064</ele>
        <time>2023-08-16T11:18:05.631Z</time>
      </trkpt>
      <trkpt lat="48.596608" lon="15.662046">
        <ele>259.065507</ele>
        <time>2023-08-16T11:18:09.603Z</time>
      </trkpt>
      <trkpt lat="48.596324" lon="15.661430">
        <ele>257.729259</ele>
        <time>2023-08-16T11:18:18.080Z</time>
      </trkpt>
      <trkpt lat="48.596349" lon="15.661347">
        <ele>257.617337</ele>
        <time>2023-08-16T11:18:19.149Z</time>
      </trkpt>
      <trkpt lat="48.596330" lon="15.661260">
        <ele>257.504903</ele>
        <time>2023-08-16T11:18:20.176Z</time>
      </trkpt>
      <trkpt lat="48.596303" lon="15.661228">
        <ele>257.441247</ele>
        <time>2023-08-16T11:18:20.761Z</time>
      </trkpt>
      <trkpt lat="48.596236" lon="15.661222">
        <ele>257.316708</ele>
        <time>2023-08-16T11:18:21.913Z</time>
      </trkpt>
      <trkpt lat="48.596182" lon="15.661332">
        <ele>257.148595</ele>
        <time>2023-08-16T11:18:23.504Z</time>
      </trkpt>
      <trkpt lat="48.596201" lon="15.661421">
        <ele>257.033827</ele>
        <time>2023-08-16T11:18:24.625Z</time>
      </trkpt>
      <trkpt lat="48.596039" lon="15.661614">
        <ele>256.651134</ele>
        <time>2023-08-16T11:18:28.210Z</time>
      </trkpt>
      <trkpt lat="48.595789" lon="15.661887">
        <ele>256.078921</ele>
        <time>2023-08-16T11:18:33.870Z</time>
      </trkpt>
      <trkpt lat="48.595424" lon="15.662114">
        <ele>255.346598</ele>
        <time>2023-08-16T11:18:41.659Z</time>
      </trkpt>
      <trkpt lat="48.595191" lon="15.662171">
        <ele>254.908636</ele>
        <time>2023-08-16T11:18:46.753Z</time>
      </trkpt>
      <trkpt lat="48.594836" lon="15.662139">
        <ele>254.656077</ele>
        <time>2023-08-16T11:18:55.056Z</time>
      </trkpt>
      <trkpt lat="48.594747" lon="15.662106">
        <ele>254.612281</ele>
        <time>2023-08-16T11:18:57.154Z</time>
      </trkpt>
      <trkpt lat="48.594678" lon="15.662075">
        <ele>254.577880</ele>
        <time>2023-08-16T11:18:58.783Z</time>
      </trkpt>
      <trkpt lat="48.594483" lon="15.661958">
        <ele>254.477615</ele>
        <time>2023-08-16T11:19:03.595Z</time>
      </trkpt>
      <trkpt lat="48.594287" lon="15.661784">
        <ele>254.368989</ele>
        <time>2023-08-16T11:19:08.543Z</time>
      </trkpt>
      <trkpt lat="48.594218" lon="15.661706">
        <ele>254.327814</ele>
        <time>2023-08-16T11:19:10.424Z</time>
      </trkpt>
      <trkpt lat="48.594082" lon="15.661543">
        <ele>254.244872</ele>
        <time>2023-08-16T11:19:14.070Z</time>
      </trkpt>
      <trkpt lat="48.593794" lon="15.661120">
        <ele>254.052979</ele>
        <time>2023-08-16T11:19:22.333Z</time>
      </trkpt>
      <trkpt lat="48.593560" lon="15.660704">
        <ele>253.749441</ele>
        <time>2023-08-16T11:19:29.468Z</time>
      </trkpt>
      <trkpt lat="48.593132" lon="15.659863">
        <ele>252.649183</ele>
        <time>2023-08-16T11:19:42.726Z</time>
      </trkpt>
      <trkpt lat="48.592748" lon="15.659297">
        <ele>251.808470</ele>
        <time>2023-08-16T11:19:53.104Z</time>
      </trkpt>
      <trkpt lat="48.592051" lon="15.658487">
        <ele>250.716047</ele>
        <time>2023-08-16T11:20:08.965Z</time>
      </trkpt>
      <trkpt lat="48.591952" lon="15.658361">
        <ele>250.597458</ele>
        <time>2023-08-16T11:20:11.340Z</time>
      </trkpt>
      <trkpt lat="48.591515" lon="15.657764">
        <ele>250.057722</ele>
        <time>2023-08-16T11:20:22.754Z</time>
      </trkpt>
      <trkpt lat="48.591593" lon="15.657597">
        <ele>249.933805</ele>
        <time>2023-08-16T11:20:25.565Z</time>
      </trkpt>
      <trkpt lat="48.591865" lon="15.657046">
        <ele>249.517068</ele>
        <time>2023-08-16T11:20:35.244Z</time>
      </trkpt>
      <trkpt lat="48.591887" lon="15.656987">
        <ele>249.476015</ele>
        <time>2023-08-16T11:20:36.574Z</time>
      </trkpt>
      <trkpt lat="48.591924" lon="15.656852">
        <ele>249.794490</ele>
        <time>2023-08-16T11:20:39.511Z</time>
      </trkpt>
      <trkpt lat="48.591991" lon="15.656605">
        <ele>250.432273</ele>
        <time>2023-08-16T11:20:44.695Z</time>
      </trkpt>
      <trkpt lat="48.592021" lon="15.656224">
        <ele>251.348914</ele>
        <time>2023-08-16T11:20:53.190Z</time>
      </trkpt>
      <trkpt lat="48.592400" lon="15.656174">
        <ele>252.723049</ele>
        <time>2023-08-16T11:21:07.056Z</time>
      </trkpt>
      <trkpt lat="48.592463" lon="15.656166">
        <ele>252.951404</ele>
        <time>2023-08-16T11:21:09.346Z</time>
      </trkpt>
      <trkpt lat="48.592507" lon="15.656162">
        <ele>253.110617</ele>
        <time>2023-08-16T11:21:11.011Z</time>
      </trkpt>
      <trkpt lat="48.592758" lon="15.656188">
        <ele>254.019345</ele>
        <time>2023-08-16T11:21:22.222Z</time>
      </trkpt>
      <trkpt lat="48.592692" lon="15.656018">
        <ele>254.490267</ele>
        <time>2023-08-16T11:21:28.363Z</time>
      </trkpt>
      <trkpt lat="48.592681" lon="15.655769">
        <ele>255.086448</ele>
        <time>2023-08-16T11:21:37.458Z</time>
      </trkpt>
      <trkpt lat="48.592774" lon="15.654691">
        <ele>259.104337</ele>
        <time>2023-08-16T11:22:18.634Z</time>
      </trkpt>
      <trkpt lat="48.592765" lon="15.654606">
        <ele>259.480139</ele>
        <time>2023-08-16T11:22:21.886Z</time>
      </trkpt>
      <trkpt lat="48.592764" lon="15.654436">
        <ele>260.222322</ele>
        <time>2023-08-16T11:22:28.586Z</time>
      </trkpt>
      <trkpt lat="48.593002" lon="15.653644">
        <ele>264.020017</ele>
        <time>2023-08-16T11:23:02.742Z</time>
      </trkpt>
      <trkpt lat="48.593183" lon="15.652838">
        <ele>267.735963</ele>
        <time>2023-08-16T11:23:33.746Z</time>
      </trkpt>
      <trkpt lat="48.593261" lon="15.652586">
        <ele>268.608849</ele>
        <time>2023-08-16T11:23:43.239Z</time>
      </trkpt>
      <trkpt lat="48.593336" lon="15.652445">
        <ele>269.156044</ele>
        <time>2023-08-16T11:23:49.125Z</time>
      </trkpt>
      <trkpt lat="48.593892" lon="15.651666">
        <ele>272.621994</ele>
        <time>2023-08-16T11:24:26.494Z</time>
      </trkpt>
      <trkpt lat="48.594075" lon="15.651541">
        <ele>273.540164</ele>
        <time>2023-08-16T11:24:35.682Z</time>
      </trkpt>
      <trkpt lat="48.594406" lon="15.651412">
        <ele>275.103087</ele>
        <time>2023-08-16T11:24:49.802Z</time>
      </trkpt>
      <trkpt lat="48.594541" lon="15.651328">
        <ele>275.770583</ele>
        <time>2023-08-16T11:24:55.013Z</time>
      </trkpt>
      <trkpt lat="48.594769" lon="15.651106">
        <ele>276.596355</ele>
        <time>2023-08-16T11:25:04.453Z</time>
      </trkpt>
      <trkpt lat="48.594826" lon="15.651082">
        <ele>276.748706</ele>
        <time>2023-08-16T11:25:06.498Z</time>
      </trkpt>
      <trkpt lat="48.595051" lon="15.650992">
        <ele>277.347979</ele>
        <time>2023-08-16T11:25:14.810Z</time>
      </trkpt>
      <trkpt lat="48.595354" lon="15.650928">
        <ele>278.135736</ele>
        <time>2023-08-16T11:25:25.231Z</time>
      </trkpt>
      <trkpt lat="48.595556" lon="15.650775">
        <ele>278.717467</ele>
        <time>2023-08-16T11:25:32.749Z</time>
      </trkpt>
      <trkpt lat="48.596065" lon="15.650132">
        <ele>280.425288</ele>
        <time>2023-08-16T11:25:57.334Z</time>
      </trkpt>
      <trkpt lat="48.596333" lon="15.649568">
        <ele>281.833319</ele>
        <time>2023-08-16T11:26:14.383Z</time>
      </trkpt>
      <trkpt lat="48.596590" lon="15.649199">
        <ele>282.970847</ele>
        <time>2023-08-16T11:26:26.840Z</time>
      </trkpt>
      <trkpt lat="48.596810" lon="15.649058">
        <ele>283.737786</ele>
        <time>2023-08-16T11:26:35.714Z</time>
      </trkpt>
      <trkpt lat="48.597250" lon="15.648968">
        <ele>285.162898</ele>
        <time>2023-08-16T11:26:53.459Z</time>
      </trkpt>
      <trkpt lat="48.597301" lon="15.648934">
        <ele>285.341794</ele>
        <time>2023-08-16T11:26:56.032Z</time>
      </trkpt>
      <trkpt lat="48.597800" lon="15.648021">
        <ele>288.271646</ele>
        <time>2023-08-16T11:27:30.496Z</time>
      </trkpt>
      <trkpt lat="48.598319" lon="15.645822">
        <ele>294.678541</ele>
        <time>2023-08-16T11:28:38.566Z</time>
      </trkpt>
      <trkpt lat="48.598392" lon="15.645692">
        <ele>295.128555</ele>
        <time>2023-08-16T11:28:43.628Z</time>
      </trkpt>
      <trkpt lat="48.598559" lon="15.645527">
        <ele>295.924523</ele>
        <time>2023-08-16T11:28:53.017Z</time>
      </trkpt>
      <trkpt lat="48.598632" lon="15.645416">
        <ele>296.337595</ele>
        <time>2023-08-16T11:28:57.440Z</time>
      </trkpt>
      <trkpt lat="48.598934" lon="15.644757">
        <ele>298.453207</ele>
        <time>2023-08-16T11:29:20.437Z</time>
      </trkpt>
      <trkpt lat="48.599228" lon="15.644234">
        <ele>300.264448</ele>
        <time>2023-08-16T11:29:40.011Z</time>
      </trkpt>
      <trkpt lat="48.599567" lon="15.643510">
        <ele>302.570561</ele>
        <time>2023-08-16T11:30:02.873Z</time>
      </trkpt>
      <trkpt lat="48.599636" lon="15.643403">
        <ele>302.955558</ele>
        <time>2023-08-16T11:30:06.672Z</time>
      </trkpt>
      <trkpt lat="48.599883" lon="15.643184">
        <ele>304.070922</ele>
        <time>2023-08-16T11:30:19.011Z</time>
      </trkpt>
      <trkpt lat="48.599940" lon="15.643093">
        <ele>304.393807</ele>
        <time>2023-08-16T11:30:22.699Z</time>
      </trkpt>
      <trkpt lat="48.600062" lon="15.642759">
        <ele>305.376738</ele>
        <time>2023-08-16T11:30:34.015Z</time>
      </trkpt>
      <trkpt lat="48.600340" lon="15.641773">
        <ele>308.137951</ele>
        <time>2023-08-16T11:31:04.568Z</time>
      </trkpt>
      <trkpt lat="48.600403" lon="15.641635">
        <ele>308.653890</ele>
        <time>2023-08-16T11:31:09.096Z</time>
      </trkpt>
      <trkpt lat="48.600594" lon="15.641165">
        <ele>310.359208</ele>
        <time>2023-08-16T11:31:30.664Z</time>
      </trkpt>
      <trkpt lat="48.600668" lon="15.640800">
        <ele>311.539363</ele>
        <time>2023-08-16T11:31:46.062Z</time>
      </trkpt>
      <trkpt lat="48.600712" lon="15.640264">
        <ele>313.209010</ele>
        <time>2023-08-16T11:32:07.124Z</time>
      </trkpt>
      <trkpt lat="48.600713" lon="15.639903">
        <ele>314.324975</ele>
        <time>2023-08-16T11:32:21.329Z</time>
      </trkpt>
      <trkpt lat="48.600685" lon="15.639753">
        <ele>314.806787</ele>
        <time>2023-08-16T11:32:27.849Z</time>
      </trkpt>
      <trkpt lat="48.600432" lon="15.639185">
        <ele>316.990533</ele>
        <time>2023-08-16T11:32:56.946Z</time>
      </trkpt>
      <trkpt lat="48.600372" lon="15.637875">
        <ele>321.790447</ele>
        <time>2023-08-16T11:33:53.418Z</time>
      </trkpt>
      <trkpt lat="48.600295" lon="15.637479">
        <ele>323.299222</ele>
        <time>2023-08-16T11:34:10.657Z</time>
      </trkpt>
      <trkpt lat="48.600163" lon="15.637226">
        <ele>324.477179</ele>
        <time>2023-08-16T11:34:23.677Z</time>
      </trkpt>
      <trkpt lat="48.599799" lon="15.636893">
        <ele>326.949123</ele>
        <time>2023-08-16T11:34:50.808Z</time>
      </trkpt>
      <trkpt lat="48.599700" lon="15.636826">
        <ele>327.768130</ele>
        <time>2023-08-16T11:34:58.270Z</time>
      </trkpt>
      <trkpt lat="48.599403" lon="15.636461">
        <ele>330.658054</ele>
        <time>2023-08-16T11:35:25.314Z</time>
      </trkpt>
      <trkpt lat="48.598869" lon="15.635480">
        <ele>337.002915</ele>
        <time>2023-08-16T11:36:31.324Z</time>
      </trkpt>
      <trkpt lat="48.598575" lon="15.633808">
        <ele>345.542876</ele>
        <time>2023-08-16T11:38:01.323Z</time>
      </trkpt>
      <trkpt lat="48.598213" lon="15.632911">
        <ele>350.696424</ele>
        <time>2023-08-16T11:38:55.312Z</time>
      </trkpt>
      <trkpt lat="48.598178" lon="15.632807">
        <ele>351.268714</ele>
        <time>2023-08-16T11:39:00.851Z</time>
      </trkpt>
      <trkpt lat="48.598120" lon="15.632621">
        <ele>352.277233</ele>
        <time>2023-08-16T11:39:10.623Z</time>
      </trkpt>
      <trkpt lat="48.598080" lon="15.632318">
        <ele>353.438267</ele>
        <time>2023-08-16T11:39:24.706Z</time>
      </trkpt>
      <trkpt lat="48.597991" lon="15.632044">
        <ele>353.512760</ele>
        <time>2023-08-16T11:39:36.753Z</time>
      </trkpt>
      <trkpt lat="48.597729" lon="15.631715">
        <ele>353.638425</ele>
        <time>2023-08-16T11:39:53.924Z</time>
      </trkpt>
      <trkpt lat="48.597465" lon="15.631144">
        <ele>353.808439</ele>
        <time>2023-08-16T11:40:10.526Z</time>
      </trkpt>
      <trkpt lat="48.597428" lon="15.631073">
        <ele>353.830497</ele>
        <time>2023-08-16T11:40:12.413Z</time>
      </trkpt>
      <trkpt lat="48.597221" lon="15.630669">
        <ele>353.955211</ele>
        <time>2023-08-16T11:40:22.767Z</time>
      </trkpt>
      <trkpt lat="48.596916" lon="15.629984">
        <ele>353.775059</ele>
        <time>2023-08-16T11:40:39.872Z</time>
      </trkpt>
      <trkpt lat="48.596871" lon="15.629639">
        <ele>353.414254</ele>
        <time>2023-08-16T11:40:47.339Z</time>
      </trkpt>
      <trkpt lat="48.596707" lon="15.629159">
        <ele>352.859909</ele>
        <time>2023-08-16T11:40:58.848Z</time>
      </trkpt>
      <trkpt lat="48.596687" lon="15.629084">
        <ele>352.776935</ele>
        <time>2023-08-16T11:41:00.504Z</time>
      </trkpt>
      <trkpt lat="48.596482" lon="15.628462">
        <ele>352.063871</ele>
        <time>2023-08-16T11:41:15.444Z</time>
      </trkpt>
      <trkpt lat="48.596416" lon="15.628130">
        <ele>351.708164</ele>
        <time>2023-08-16T11:41:23.085Z</time>
      </trkpt>
      <trkpt lat="48.596477" lon="15.627546">
        <ele>351.733839</ele>
        <time>2023-08-16T11:41:37.458Z</time>
      </trkpt>
      <trkpt lat="48.596390" lon="15.626792">
        <ele>353.543144</ele>
        <time>2023-08-16T11:42:02.342Z</time>
      </trkpt>
      <trkpt lat="48.596361" lon="15.626688">
        <ele>353.809948</ele>
        <time>2023-08-16T11:42:06.631Z</time>
      </trkpt>
      <trkpt lat="48.596005" lon="15.627180">
        <ele>355.533844</ele>
        <time>2023-08-16T11:42:35.077Z</time>
      </trkpt>
      <trkpt lat="48.595838" lon="15.627465">
        <ele>356.433954</ele>
        <time>2023-08-16T11:42:51.059Z</time>
      </trkpt>
      <trkpt lat="48.595883" lon="15.627696">
        <ele>357.003217</ele>
        <time>2023-08-16T11:43:01.149Z</time>
      </trkpt>
      <trkpt lat="48.595870" lon="15.627920">
        <ele>357.534772</ele>
        <time>2023-08-16T11:43:10.987Z</time>
      </trkpt>
      <trkpt lat="48.595767" lon="15.628287">
        <ele>359.058628</ele>
        <time>2023-08-16T11:43:28.303Z</time>
      </trkpt>
      <trkpt lat="48.595811" lon="15.628464">
        <ele>359.849666</ele>
        <time>2023-08-16T11:43:36.712Z</time>
      </trkpt>
      <trkpt lat="48.595834" lon="15.628987">
        <ele>362.042410</ele>
        <time>2023-08-16T11:43:59.759Z</time>
      </trkpt>
      <trkpt lat="48.595888" lon="15.629455">
        <ele>364.029806</ele>
        <time>2023-08-16T11:44:21.769Z</time>
      </trkpt>
      <trkpt lat="48.596148" lon="15.629849">
        <ele>366.358200</ele>
        <time>2023-08-16T11:44:48.342Z</time>
      </trkpt>
      <trkpt lat="48.595996" lon="15.630175">
        <ele>368.026819</ele>
        <time>2023-08-16T11:45:07.490Z</time>
      </trkpt>
      <trkpt lat="48.595668" lon="15.630067">
        <ele>370.121482</ele>
        <time>2023-08-16T11:45:31.102Z</time>
      </trkpt>
      <trkpt lat="48.595146" lon="15.629435">
        <ele>374.236027</ele>
        <time>2023-08-16T11:46:16.543Z</time>
      </trkpt>
      <trkpt lat="48.594901" lon="15.628747">
        <ele>377.415747</ele>
        <time>2023-08-16T11:46:51.937Z</time>
      </trkpt>
      <trkpt lat="48.594812" lon="15.628422">
        <ele>378.847164</ele>
        <time>2023-08-16T11:47:08.033Z</time>
      </trkpt>
      <trkpt lat="48.594811" lon="15.627793">
        <ele>380.777367</ele>
        <time>2023-08-16T11:47:35.611Z</time>
      </trkpt>
      <trkpt lat="48.594731" lon="15.627455">
        <ele>381.497423</ele>
        <time>2023-08-16T11:47:50.423Z</time>
      </trkpt>
      <trkpt lat="48.594591" lon="15.627216">
        <ele>382.137792</ele>
        <time>2023-08-16T11:48:02.041Z</time>
      </trkpt>
      <trkpt lat="48.594172" lon="15.626876">
        <ele>383.579932</ele>
        <time>2023-08-16T11:48:25.091Z</time>
      </trkpt>
      <trkpt lat="48.594083" lon="15.626731">
        <ele>383.976719</ele>
        <time>2023-08-16T11:48:30.738Z</time>
      </trkpt>
      <trkpt lat="48.594021" lon="15.626293">
        <ele>384.875156</ele>
        <time>2023-08-16T11:48:43.220Z</time>
      </trkpt>
      <trkpt lat="48.594204" lon="15.625860">
        <ele>385.988739</ele>
        <time>2023-08-16T11:48:57.500Z</time>
      </trkpt>
      <trkpt lat="48.594377" lon="15.625556">
        <ele>387.026698</ele>
        <time>2023-08-16T11:49:09.955Z</time>
      </trkpt>
      <trkpt lat="48.594743" lon="15.625476">
        <ele>388.473824</ele>
        <time>2023-08-16T11:49:29.045Z</time>
      </trkpt>
      <trkpt lat="48.595328" lon="15.625535">
        <ele>390.768142</ele>
        <time>2023-08-16T11:50:02.953Z</time>
      </trkpt>
      <trkpt lat="48.595412" lon="15.625493">
        <ele>391.114359</ele>
        <time>2023-08-16T11:50:08.488Z</time>
      </trkpt>
      <trkpt lat="48.595335" lon="15.625407">
        <ele>391.488969</ele>
        <time>2023-08-16T11:50:14.571Z</time>
      </trkpt>
      <trkpt lat="48.594683" lon="15.625104">
        <ele>395.845211</ele>
        <time>2023-08-16T11:51:01.112Z</time>
      </trkpt>
      <trkpt lat="48.594380" lon="15.624773">
        <ele>398.953898</ele>
        <time>2023-08-16T11:51:31.489Z</time>
      </trkpt>
      <trkpt lat="48.593982" lon="15.624598">
        <ele>402.400871</ele>
        <time>2023-08-16T11:52:08.260Z</time>
      </trkpt>
      <trkpt lat="48.593375" lon="15.625170">
        <ele>408.178181</ele>
        <time>2023-08-16T11:53:08.357Z</time>
      </trkpt>
      <trkpt lat="48.593255" lon="15.625093">
        <ele>409.009402</ele>
        <time>2023-08-16T11:53:17.933Z</time>
      </trkpt>
      <trkpt lat="48.593068" lon="15.624675">
        <ele>411.137639</ele>
        <time>2023-08-16T11:53:41.569Z</time>
      </trkpt>
      <trkpt lat="48.592971" lon="15.624548">
        <ele>411.955821</ele>
        <time>2023-08-16T11:53:50.266Z</time>
      </trkpt>
      <trkpt lat="48.592781" lon="15.624997">
        <ele>414.203810</ele>
        <time>2023-08-16T11:54:12.713Z</time>
      </trkpt>
      <trkpt lat="48.592394" lon="15.625527">
        <ele>417.533297</ele>
        <time>2023-08-16T11:54:45.488Z</time>
      </trkpt>
      <trkpt lat="48.591926" lon="15.626025">
        <ele>421.554864</ele>
        <time>2023-08-16T11:55:23.496Z</time>
      </trkpt>
      <trkpt lat="48.591827" lon="15.626021">
        <ele>422.298505</ele>
        <time>2023-08-16T11:55:28.766Z</time>
      </trkpt>
      <trkpt lat="48.591448" lon="15.626168">
        <ele>425.236513</ele>
        <time>2023-08-16T11:55:52.262Z</time>
      </trkpt>
      <trkpt lat="48.591295" lon="15.626311">
        <ele>426.587168</ele>
        <time>2023-08-16T11:56:03.730Z</time>
      </trkpt>
      <trkpt lat="48.591029" lon="15.626710">
        <ele>429.400774</ele>
        <time>2023-08-16T11:56:28.616Z</time>
      </trkpt>
      <trkpt lat="48.590895" lon="15.626861">
        <ele>430.655700</ele>
        <time>2023-08-16T11:56:39.966Z</time>
      </trkpt>
      <trkpt lat="48.590587" lon="15.627045">
        <ele>433.025404</ele>
        <time>2023-08-16T11:57:01.886Z</time>
      </trkpt>
      <trkpt lat="48.590477" lon="15.627143">
        <ele>433.780563</ele>
        <time>2023-08-16T11:57:10.322Z</time>
      </trkpt>
      <trkpt lat="48.590315" lon="15.627501">
        <ele>435.477490</ele>
        <time>2023-08-16T11:57:28.844Z</time>
      </trkpt>
      <trkpt lat="48.589978" lon="15.627393">
        <ele>437.514982</ele>
        <time>2023-08-16T11:57:54.149Z</time>
      </trkpt>
      <trkpt lat="48.589789" lon="15.627250">
        <ele>438.765006</ele>
        <time>2023-08-16T11:58:08.751Z</time>
      </trkpt>
      <trkpt lat="48.589674" lon="15.627314">
        <ele>439.489799</ele>
        <time>2023-08-16T11:58:16.933Z</time>
      </trkpt>
      <trkpt lat="48.589448" lon="15.627195">
        <ele>440.905239</ele>
        <time>2023-08-16T11:58:31.943Z</time>
      </trkpt>
      <trkpt lat="48.589378" lon="15.627149">
        <ele>441.356678</ele>
        <time>2023-08-16T11:58:36.338Z</time>
      </trkpt>
      <trkpt lat="48.589268" lon="15.626907">
        <ele>442.505424</ele>
        <time>2023-08-16T11:58:46.976Z</time>
      </trkpt>
      <trkpt lat="48.589177" lon="15.626814">
        <ele>443.155086</ele>
        <time>2023-08-16T11:58:52.699Z</time>
      </trkpt>
      <trkpt lat="48.589034" lon="15.626752">
        <ele>443.081383</ele>
        <time>2023-08-16T11:58:59.878Z</time>
      </trkpt>
      <trkpt lat="48.588608" lon="15.626734">
        <ele>442.618150</ele>
        <time>2023-08-16T11:59:16.402Z</time>
      </trkpt>
      <trkpt lat="48.588461" lon="15.626604">
        <ele>442.433033</ele>
        <time>2023-08-16T11:59:22.494Z</time>
      </trkpt>
      <trkpt lat="48.588166" lon="15.626455">
        <ele>442.094952</ele>
        <time>2023-08-16T11:59:32.971Z</time>
      </trkpt>
      <trkpt lat="48.588099" lon="15.626474">
        <ele>442.020854</ele>
        <time>2023-08-16T11:59:35.215Z</time>
      </trkpt>
      <trkpt lat="48.588038" lon="15.626706">
        <ele>441.841351</ele>
        <time>2023-08-16T11:59:40.505Z</time>
      </trkpt>
      <trkpt lat="48.587939" lon="15.626750">
        <ele>441.729186</ele>
        <time>2023-08-16T11:59:43.753Z</time>
      </trkpt>
      <trkpt lat="48.587498" lon="15.626571">
        <ele>441.106323</ele>
        <time>2023-08-16T11:59:57.534Z</time>
      </trkpt>
      <trkpt lat="48.587332" lon="15.626716">
        <ele>440.262361</ele>
        <time>2023-08-16T12:00:03.079Z</time>
      </trkpt>
      <trkpt lat="48.587281" lon="15.626836">
        <ele>439.847026</ele>
        <time>2023-08-16T12:00:05.899Z</time>
      </trkpt>
      <trkpt lat="48.587226" lon="15.626977">
        <ele>439.370376</ele>
        <time>2023-08-16T12:00:08.994Z</time>
      </trkpt>
      <trkpt lat="48.587172" lon="15.627576">
        <ele>437.610019</ele>
        <time>2023-08-16T12:00:20.537Z</time>
      </trkpt>
      <trkpt lat="48.587121" lon="15.627759">
        <ele>437.031776</ele>
        <time>2023-08-16T12:00:24.333Z</time>
      </trkpt>
      <trkpt lat="48.586902" lon="15.628356">
        <ele>435.043937</ele>
        <time>2023-08-16T12:00:37.508Z</time>
      </trkpt>
      <trkpt lat="48.586726" lon="15.628553">
        <ele>434.079911</ele>
        <time>2023-08-16T12:00:43.842Z</time>
      </trkpt>
      <trkpt lat="48.585937" lon="15.627449">
        <ele>431.370759</ele>
        <time>2023-08-16T12:01:01.777Z</time>
      </trkpt>
      <trkpt lat="48.585443" lon="15.626517">
        <ele>429.648282</ele>
        <time>2023-08-16T12:01:17.385Z</time>
      </trkpt>
      <trkpt lat="48.584654" lon="15.624944">
        <ele>430.499615</ele>
        <time>2023-08-16T12:01:52.548Z</time>
      </trkpt>
      <trkpt lat="48.584178" lon="15.624166">
        <ele>431.063067</ele>
        <time>2023-08-16T12:02:13.461Z</time>
      </trkpt>
      <trkpt lat="48.583927" lon="15.623887">
        <ele>431.184090</ele>
        <time>2023-08-16T12:02:22.108Z</time>
      </trkpt>
      <trkpt lat="48.583410" lon="15.623420">
        <ele>431.418042</ele>
        <time>2023-08-16T12:02:37.368Z</time>
      </trkpt>
      <trkpt lat="48.583094" lon="15.623015">
        <ele>431.578973</ele>
        <time>2023-08-16T12:02:46.870Z</time>
      </trkpt>
      <trkpt lat="48.581884" lon="15.621468">
        <ele>430.972672</ele>
        <time>2023-08-16T12:03:19.504Z</time>
      </trkpt>
      <trkpt lat="48.581679" lon="15.621075">
        <ele>430.770930</ele>
        <time>2023-08-16T12:03:26.235Z</time>
      </trkpt>
      <trkpt lat="48.581574" lon="15.620960">
        <ele>430.691922</ele>
        <time>2023-08-16T12:03:28.880Z</time>
      </trkpt>
      <trkpt lat="48.581421" lon="15.620938">
        <ele>430.626794</ele>
        <time>2023-08-16T12:03:31.999Z</time>
      </trkpt>
      <trkpt lat="48.581001" lon="15.621026">
        <ele>430.667597</ele>
        <time>2023-08-16T12:03:40.767Z</time>
      </trkpt>
      <trkpt lat="48.580752" lon="15.621033">
        <ele>430.691562</ele>
        <time>2023-08-16T12:03:46.137Z</time>
      </trkpt>
      <trkpt lat="48.580424" lon="15.620975">
        <ele>430.723341</ele>
        <time>2023-08-16T12:03:53.977Z</time>
      </trkpt>
      <trkpt lat="48.580348" lon="15.620927">
        <ele>430.731267</ele>
        <time>2023-08-16T12:03:55.990Z</time>
      </trkpt>
      <trkpt lat="48.580202" lon="15.620802">
        <ele>430.747414</ele>
        <time>2023-08-16T12:04:00.114Z</time>
      </trkpt>
      <trkpt lat="48.579817" lon="15.620264">
        <ele>430.804534</ele>
        <time>2023-08-16T12:04:13.529Z</time>
      </trkpt>
      <trkpt lat="48.579420" lon="15.620863">
        <ele>431.049742</ele>
        <time>2023-08-16T12:04:28.346Z</time>
      </trkpt>
      <trkpt lat="48.579287" lon="15.620998">
        <ele>431.119774</ele>
        <time>2023-08-16T12:04:32.389Z</time>
      </trkpt>
      <trkpt lat="48.578493" lon="15.620435">
        <ele>431.503156</ele>
        <time>2023-08-16T12:04:53.450Z</time>
      </trkpt>
      <trkpt lat="48.578142" lon="15.620282">
        <ele>431.876800</ele>
        <time>2023-08-16T12:05:02.975Z</time>
      </trkpt>
      <trkpt lat="48.577536" lon="15.620054">
        <ele>432.874441</ele>
        <time>2023-08-16T12:05:19.908Z</time>
      </trkpt>
      <trkpt lat="48.577257" lon="15.619984">
        <ele>433.326249</ele>
        <time>2023-08-16T12:05:28.288Z</time>
      </trkpt>
      <trkpt lat="48.577169" lon="15.620129">
        <ele>433.534217</ele>
        <time>2023-08-16T12:05:32.334Z</time>
      </trkpt>
      <trkpt lat="48.577068" lon="15.620194">
        <ele>433.709584</ele>
        <time>2023-08-16T12:05:35.865Z</time>
      </trkpt>
      <trkpt lat="48.576301" lon="15.620454">
        <ele>435.755632</ele>
        <time>2023-08-16T12:06:04.669Z</time>
      </trkpt>
      <trkpt lat="48.576136" lon="15.620585">
        <ele>436.515038</ele>
        <time>2023-08-16T12:06:12.481Z</time>
      </trkpt>
      <trkpt lat="48.575588" lon="15.621105">
        <ele>439.151455</ele>
        <time>2023-08-16T12:06:42.578Z</time>
      </trkpt>
      <trkpt lat="48.575483" lon="15.621165">
        <ele>439.608837</ele>
        <time>2023-08-16T12:06:47.802Z</time>
      </trkpt>
      <trkpt lat="48.575268" lon="15.621215">
        <ele>440.495169</ele>
        <time>2023-08-16T12:06:57.885Z</time>
      </trkpt>
      <trkpt lat="48.574264" lon="15.620913">
        <ele>444.143663</ele>
        <time>2023-08-16T12:07:41.024Z</time>
      </trkpt>
      <trkpt lat="48.573693" lon="15.620792">
        <ele>446.066998</ele>
        <time>2023-08-16T12:08:02.835Z</time>
      </trkpt>
      <trkpt lat="48.573207" lon="15.620796">
        <ele>447.688188</ele>
        <time>2023-08-16T12:08:20.058Z</time>
      </trkpt>
      <trkpt lat="48.572615" lon="15.620887">
        <ele>449.106868</ele>
        <time>2023-08-16T12:08:40.387Z</time>
      </trkpt>
      <trkpt lat="48.572163" lon="15.621180">
        <ele>450.255687</ele>
        <time>2023-08-16T12:08:57.367Z</time>
      </trkpt>
      <trkpt lat="48.571705" lon="15.621631">
        <ele>451.532552</ele>
        <time>2023-08-16T12:09:16.030Z</time>
      </trkpt>
      <trkpt lat="48.571627" lon="15.621755">
        <ele>451.796987</ele>
        <time>2023-08-16T12:09:19.726Z</time>
      </trkpt>
      <trkpt lat="48.571236" lon="15.622383">
        <ele>452.297071</ele>
        <time>2023-08-16T12:09:37.879Z</time>
      </trkpt>
      <trkpt lat="48.570855" lon="15.622705">
        <ele>452.574800</ele>
        <time>2023-08-16T12:09:50.885Z</time>
      </trkpt>
      <trkpt lat="48.569828" lon="15.623250">
        <ele>452.482064</ele>
        <time>2023-08-16T12:10:14.223Z</time>
      </trkpt>
      <trkpt lat="48.569681" lon="15.623383">
        <ele>451.969032</ele>
        <time>2023-08-16T12:10:17.282Z</time>
      </trkpt>
      <trkpt lat="48.569402" lon="15.623636">
        <ele>450.994735</ele>
        <time>2023-08-16T12:10:22.916Z</time>
      </trkpt>
      <trkpt lat="48.568243" lon="15.625325">
        <ele>446.915159</ele>
        <time>2023-08-16T12:10:49.479Z</time>
      </trkpt>
      <trkpt lat="48.568111" lon="15.625693">
        <ele>446.477471</ele>
        <time>2023-08-16T12:10:54.368Z</time>
      </trkpt>
      <trkpt lat="48.568083" lon="15.626089">
        <ele>446.061043</ele>
        <time>2023-08-16T12:10:59.351Z</time>
      </trkpt>
      <trkpt lat="48.568112" lon="15.626458">
        <ele>445.672493</ele>
        <time>2023-08-16T12:11:04.362Z</time>
      </trkpt>
      <trkpt lat="48.568164" lon="15.627302">
        <ele>445.021747</ele>
        <time>2023-08-16T12:11:18.276Z</time>
      </trkpt>
      <trkpt lat="48.568135" lon="15.627833">
        <ele>445.600329</ele>
        <time>2023-08-16T12:11:29.157Z</time>
      </trkpt>
      <trkpt lat="48.568051" lon="15.628236">
        <ele>446.059149</ele>
        <time>2023-08-16T12:11:38.904Z</time>
      </trkpt>
      <trkpt lat="48.567948" lon="15.628619">
        <ele>446.508090</ele>
        <time>2023-08-16T12:11:48.832Z</time>
      </trkpt>
      <trkpt lat="48.567817" lon="15.628994">
        <ele>446.968571</ele>
        <time>2023-08-16T12:11:58.813Z</time>
      </trkpt>
      <trkpt lat="48.567655" lon="15.629278">
        <ele>447.375740</ele>
        <time>2023-08-16T12:12:06.783Z</time>
      </trkpt>
      <trkpt lat="48.567250" lon="15.629741">
        <ele>447.723610</ele>
        <time>2023-08-16T12:12:20.903Z</time>
      </trkpt>
      <trkpt lat="48.566180" lon="15.630840">
        <ele>446.949343</ele>
        <time>2023-08-16T12:12:47.813Z</time>
      </trkpt>
      <trkpt lat="48.565924" lon="15.631027">
        <ele>446.779175</ele>
        <time>2023-08-16T12:12:53.003Z</time>
      </trkpt>
      <trkpt lat="48.565462" lon="15.631218">
        <ele>444.738508</ele>
        <time>2023-08-16T12:13:01.427Z</time>
      </trkpt>
      <trkpt lat="48.564760" lon="15.631596">
        <ele>441.541895</ele>
        <time>2023-08-16T12:13:13.835Z</time>
      </trkpt>
      <trkpt lat="48.563833" lon="15.632338">
        <ele>435.022782</ele>
        <time>2023-08-16T12:13:29.698Z</time>
      </trkpt>
      <trkpt lat="48.563656" lon="15.632757">
        <ele>432.200787</ele>
        <time>2023-08-16T12:13:34.491Z</time>
      </trkpt>
      <trkpt lat="48.563489" lon="15.633465">
        <ele>427.933734</ele>
        <time>2023-08-16T12:13:41.610Z</time>
      </trkpt>
      <trkpt lat="48.563354" lon="15.634904">
        <ele>419.562814</ele>
        <time>2023-08-16T12:13:55.274Z</time>
      </trkpt>
      <trkpt lat="48.563179" lon="15.636780">
        <ele>408.480778</ele>
        <time>2023-08-16T12:14:13.389Z</time>
      </trkpt>
      <trkpt lat="48.563065" lon="15.637784">
        <ele>404.572004</ele>
        <time>2023-08-16T12:14:23.539Z</time>
      </trkpt>
      <trkpt lat="48.563022" lon="15.637912">
        <ele>404.062550</ele>
        <time>2023-08-16T12:14:25.016Z</time>
      </trkpt>
      <trkpt lat="48.562759" lon="15.637905">
        <ele>402.651930</ele>
        <time>2023-08-16T12:14:29.122Z</time>
      </trkpt>
      <trkpt lat="48.562429" lon="15.637811">
        <ele>400.851054</ele>
        <time>2023-08-16T12:14:34.490Z</time>
      </trkpt>
      <trkpt lat="48.561116" lon="15.637581">
        <ele>395.730702</ele>
        <time>2023-08-16T12:14:57.040Z</time>
      </trkpt>
      <trkpt lat="48.560806" lon="15.637451">
        <ele>394.790277</ele>
        <time>2023-08-16T12:15:02.808Z</time>
      </trkpt>
      <trkpt lat="48.560246" lon="15.637199">
        <ele>393.082265</ele>
        <time>2023-08-16T12:15:13.208Z</time>
      </trkpt>
      <trkpt lat="48.559852" lon="15.637074">
        <ele>391.725716</ele>
        <time>2023-08-16T12:15:20.208Z</time>
      </trkpt>
      <trkpt lat="48.559715" lon="15.637060">
        <ele>391.246410</ele>
        <time>2023-08-16T12:15:22.556Z</time>
      </trkpt>
      <trkpt lat="48.559485" lon="15.637094">
        <ele>390.439736</ele>
        <time>2023-08-16T12:15:26.503Z</time>
      </trkpt>
      <trkpt lat="48.559380" lon="15.637163">
        <ele>390.040057</ele>
        <time>2023-08-16T12:15:28.432Z</time>
      </trkpt>
      <trkpt lat="48.559191" lon="15.637391">
        <ele>389.195849</ele>
        <time>2023-08-16T12:15:32.488Z</time>
      </trkpt>
      <trkpt lat="48.558624" lon="15.638436">
        <ele>386.063680</ele>
        <time>2023-08-16T12:15:47.243Z</time>
      </trkpt>
      <trkpt lat="48.558527" lon="15.638566">
        <ele>385.601276</ele>
        <time>2023-08-16T12:15:49.364Z</time>
      </trkpt>
      <trkpt lat="48.558045" lon="15.639005">
        <ele>383.594185</ele>
        <time>2023-08-16T12:15:58.609Z</time>
      </trkpt>
      <trkpt lat="48.557460" lon="15.639439">
        <ele>381.269997</ele>
        <time>2023-08-16T12:16:09.546Z</time>
      </trkpt>
      <trkpt lat="48.557308" lon="15.639546">
        <ele>380.671979</ele>
        <time>2023-08-16T12:16:12.432Z</time>
      </trkpt>
      <trkpt lat="48.557083" lon="15.639618">
        <ele>379.983379</ele>
        <time>2023-08-16T12:16:16.478Z</time>
      </trkpt>
      <trkpt lat="48.556397" lon="15.639510">
        <ele>378.652980</ele>
        <time>2023-08-16T12:16:28.990Z</time>
      </trkpt>
      <trkpt lat="48.556206" lon="15.639618">
        <ele>378.259600</ele>
        <time>2023-08-16T12:16:32.744Z</time>
      </trkpt>
      <trkpt lat="48.555713" lon="15.640103">
        <ele>377.124815</ele>
        <time>2023-08-16T12:16:43.900Z</time>
      </trkpt>
      <trkpt lat="48.555546" lon="15.640284">
        <ele>376.728369</ele>
        <time>2023-08-16T12:16:47.929Z</time>
      </trkpt>
      <trkpt lat="48.555213" lon="15.640765">
        <ele>376.274939</ele>
        <time>2023-08-16T12:16:56.845Z</time>
      </trkpt>
      <trkpt lat="48.554705" lon="15.641274">
        <ele>375.716230</ele>
        <time>2023-08-16T12:17:08.835Z</time>
      </trkpt>
      <trkpt lat="48.553690" lon="15.642057">
        <ele>374.843922</ele>
        <time>2023-08-16T12:17:32.557Z</time>
      </trkpt>
      <trkpt lat="48.553415" lon="15.642375">
        <ele>374.683292</ele>
        <time>2023-08-16T12:17:40.009Z</time>
      </trkpt>
      <trkpt lat="48.552975" lon="15.643223">
        <ele>374.352483</ele>
        <time>2023-08-16T12:17:55.025Z</time>
      </trkpt>
      <trkpt lat="48.552719" lon="15.644006">
        <ele>374.051521</ele>
        <time>2023-08-16T12:18:07.175Z</time>
      </trkpt>
      <trkpt lat="48.552562" lon="15.644688">
        <ele>373.758312</ele>
        <time>2023-08-16T12:18:16.892Z</time>
      </trkpt>
      <trkpt lat="48.552319" lon="15.645072">
        <ele>373.542588</ele>
        <time>2023-08-16T12:18:23.865Z</time>
      </trkpt>
      <trkpt lat="48.551550" lon="15.645969">
        <ele>373.417175</ele>
        <time>2023-08-16T12:18:43.811Z</time>
      </trkpt>
      <trkpt lat="48.551042" lon="15.646687">
        <ele>374.465255</ele>
        <time>2023-08-16T12:19:02.669Z</time>
      </trkpt>
      <trkpt lat="48.549768" lon="15.648538">
        <ele>378.060379</ele>
        <time>2023-08-16T12:20:06.048Z</time>
      </trkpt>
      <trkpt lat="48.549301" lon="15.649218">
        <ele>379.719495</ele>
        <time>2023-08-16T12:20:29.155Z</time>
      </trkpt>
      <trkpt lat="48.548883" lon="15.649770">
        <ele>380.818886</ele>
        <time>2023-08-16T12:20:47.271Z</time>
      </trkpt>
      <trkpt lat="48.548645" lon="15.650066">
        <ele>381.268551</ele>
        <time>2023-08-16T12:20:56.706Z</time>
      </trkpt>
      <trkpt lat="48.548210" lon="15.650512">
        <ele>382.035388</ele>
        <time>2023-08-16T12:21:12.144Z</time>
      </trkpt>
      <trkpt lat="48.547859" lon="15.650927">
        <ele>382.685533</ele>
        <time>2023-08-16T12:21:25.009Z</time>
      </trkpt>
      <trkpt lat="48.547587" lon="15.651331">
        <ele>382.952188</ele>
        <time>2023-08-16T12:21:35.123Z</time>
      </trkpt>
      <trkpt lat="48.547407" lon="15.651692">
        <ele>382.826955</ele>
        <time>2023-08-16T12:21:42.326Z</time>
      </trkpt>
      <trkpt lat="48.547224" lon="15.652201">
        <ele>382.666453</ele>
        <time>2023-08-16T12:21:50.783Z</time>
      </trkpt>
      <trkpt lat="48.547113" lon="15.652811">
        <ele>382.491152</ele>
        <time>2023-08-16T12:21:59.423Z</time>
      </trkpt>
      <trkpt lat="48.546957" lon="15.654052">
        <ele>381.627122</ele>
        <time>2023-08-16T12:22:15.496Z</time>
      </trkpt>
      <trkpt lat="48.546705" lon="15.655100">
        <ele>380.024883</ele>
        <time>2023-08-16T12:22:28.826Z</time>
      </trkpt>
      <trkpt lat="48.546546" lon="15.655664">
        <ele>379.143986</ele>
        <time>2023-08-16T12:22:35.923Z</time>
      </trkpt>
      <trkpt lat="48.546301" lon="15.656403">
        <ele>378.161021</ele>
        <time>2023-08-16T12:22:45.618Z</time>
      </trkpt>
      <trkpt lat="48.546105" lon="15.656878">
        <ele>377.764901</ele>
        <time>2023-08-16T12:22:52.367Z</time>
      </trkpt>
      <trkpt lat="48.545937" lon="15.657374">
        <ele>377.370594</ele>
        <time>2023-08-16T12:22:59.368Z</time>
      </trkpt>
      <trkpt lat="48.545801" lon="15.657987">
        <ele>376.913046</ele>
        <time>2023-08-16T12:23:08.026Z</time>
      </trkpt>
      <trkpt lat="48.545613" lon="15.659282">
        <ele>376.234637</ele>
        <time>2023-08-16T12:23:30.056Z</time>
      </trkpt>
      <trkpt lat="48.545467" lon="15.659821">
        <ele>376.054268</ele>
        <time>2023-08-16T12:23:39.938Z</time>
      </trkpt>
      <trkpt lat="48.545107" lon="15.660751">
        <ele>375.720609</ele>
        <time>2023-08-16T12:23:54.897Z</time>
      </trkpt>
      <trkpt lat="48.545023" lon="15.661136">
        <ele>375.591874</ele>
        <time>2023-08-16T12:24:00.025Z</time>
      </trkpt>
      <trkpt lat="48.545321" lon="15.661166">
        <ele>374.147524</ele>
        <time>2023-08-16T12:24:05.502Z</time>
      </trkpt>
      <trkpt lat="48.545492" lon="15.661230">
        <ele>373.295546</ele>
        <time>2023-08-16T12:24:08.601Z</time>
      </trkpt>
      <trkpt lat="48.545677" lon="15.661337">
        <ele>372.337528</ele>
        <time>2023-08-16T12:24:12.045Z</time>
      </trkpt>
      <trkpt lat="48.547194" lon="15.662229">
        <ele>363.991067</ele>
        <time>2023-08-16T12:24:38.152Z</time>
      </trkpt>
      <trkpt lat="48.547511" lon="15.662500">
        <ele>361.886315</ele>
        <time>2023-08-16T12:24:44.142Z</time>
      </trkpt>
      <trkpt lat="48.547934" lon="15.663181">
        <ele>358.314126</ele>
        <time>2023-08-16T12:24:54.519Z</time>
      </trkpt>
      <trkpt lat="48.548272" lon="15.663971">
        <ele>353.590677</ele>
        <time>2023-08-16T12:25:04.468Z</time>
      </trkpt>
      <trkpt lat="48.548556" lon="15.664519">
        <ele>349.252800</ele>
        <time>2023-08-16T12:25:11.545Z</time>
      </trkpt>
      <trkpt lat="48.548465" lon="15.664642">
        <ele>348.103065</ele>
        <time>2023-08-16T12:25:14.681Z</time>
      </trkpt>
      <trkpt lat="48.548293" lon="15.664603">
        <ele>346.465447</ele>
        <time>2023-08-16T12:25:19.171Z</time>
      </trkpt>
      <trkpt lat="48.548212" lon="15.664670">
        <ele>345.595937</ele>
        <time>2023-08-16T12:25:21.522Z</time>
      </trkpt>
      <trkpt lat="48.548037" lon="15.665016">
        <ele>342.881898</ele>
        <time>2023-08-16T12:25:28.810Z</time>
      </trkpt>
      <trkpt lat="48.548022" lon="15.665221">
        <ele>341.596347</ele>
        <time>2023-08-16T12:25:32.223Z</time>
      </trkpt>
      <trkpt lat="48.548061" lon="15.665353">
        <ele>340.695363</ele>
        <time>2023-08-16T12:25:34.608Z</time>
      </trkpt>
      <trkpt lat="48.548133" lon="15.665484">
        <ele>339.634096</ele>
        <time>2023-08-16T12:25:37.428Z</time>
      </trkpt>
      <trkpt lat="48.548255" lon="15.665599">
        <ele>338.415800</ele>
        <time>2023-08-16T12:25:41.016Z</time>
      </trkpt>
      <trkpt lat="48.548338" lon="15.665727">
        <ele>337.416623</ele>
        <time>2023-08-16T12:25:43.941Z</time>
      </trkpt>
      <trkpt lat="48.548545" lon="15.666165">
        <ele>334.415546</ele>
        <time>2023-08-16T12:25:52.825Z</time>
      </trkpt>
      <trkpt lat="48.548924" lon="15.666584">
        <ele>330.459234</ele>
        <time>2023-08-16T12:26:04.816Z</time>
      </trkpt>
      <trkpt lat="48.549020" lon="15.666786">
        <ele>329.072566</ele>
        <time>2023-08-16T12:26:09.216Z</time>
      </trkpt>
      <trkpt lat="48.549107" lon="15.666897">
        <ele>328.113270</ele>
        <time>2023-08-16T12:26:12.323Z</time>
      </trkpt>
      <trkpt lat="48.549312" lon="15.667116">
        <ele>325.998188</ele>
        <time>2023-08-16T12:26:19.632Z</time>
      </trkpt>
      <trkpt lat="48.549388" lon="15.667237">
        <ele>325.068052</ele>
        <time>2023-08-16T12:26:22.987Z</time>
      </trkpt>
      <trkpt lat="48.549675" lon="15.667449">
        <ele>324.111812</ele>
        <time>2023-08-16T12:26:33.865Z</time>
      </trkpt>
      <trkpt lat="48.549722" lon="15.667453">
        <ele>324.052499</ele>
        <time>2023-08-16T12:26:35.678Z</time>
      </trkpt>
      <trkpt lat="48.550001" lon="15.667677">
        <ele>323.654399</ele>
        <time>2023-08-16T12:26:48.754Z</time>
      </trkpt>
      <trkpt lat="48.550333" lon="15.667765">
        <ele>323.229694</ele>
        <time>2023-08-16T12:27:04.038Z</time>
      </trkpt>
      <trkpt lat="48.550463" lon="15.667881">
        <ele>323.039456</ele>
        <time>2023-08-16T12:27:10.450Z</time>
      </trkpt>
      <trkpt lat="48.550553" lon="15.667911">
        <ele>322.923330</ele>
        <time>2023-08-16T12:27:14.295Z</time>
      </trkpt>
      <trkpt lat="48.550754" lon="15.667960">
        <ele>322.666797</ele>
        <time>2023-08-16T12:27:21.431Z</time>
      </trkpt>
      <trkpt lat="48.550812" lon="15.667974">
        <ele>322.592791</ele>
        <time>2023-08-16T12:27:23.502Z</time>
      </trkpt>
      <trkpt lat="48.551001" lon="15.667894">
        <ele>322.345482</ele>
        <time>2023-08-16T12:27:29.946Z</time>
      </trkpt>
      <trkpt lat="48.551287" lon="15.667915">
        <ele>321.154911</ele>
        <time>2023-08-16T12:27:38.564Z</time>
      </trkpt>
      <trkpt lat="48.551670" lon="15.668102">
        <ele>318.112567</ele>
        <time>2023-08-16T12:27:49.779Z</time>
      </trkpt>
      <trkpt lat="48.551773" lon="15.668202">
        <ele>317.187131</ele>
        <time>2023-08-16T12:27:53.020Z</time>
      </trkpt>
      <trkpt lat="48.551819" lon="15.668283">
        <ele>316.653155</ele>
        <time>2023-08-16T12:27:54.888Z</time>
      </trkpt>
      <trkpt lat="48.551874" lon="15.668618">
        <ele>314.926269</ele>
        <time>2023-08-16T12:28:00.935Z</time>
      </trkpt>
      <trkpt lat="48.551926" lon="15.668795">
        <ele>313.957385</ele>
        <time>2023-08-16T12:28:04.212Z</time>
      </trkpt>
      <trkpt lat="48.551931" lon="15.669009">
        <ele>312.886017</ele>
        <time>2023-08-16T12:28:07.926Z</time>
      </trkpt>
      <trkpt lat="48.551902" lon="15.669100">
        <ele>312.380701</ele>
        <time>2023-08-16T12:28:09.631Z</time>
      </trkpt>
      <trkpt lat="48.551919" lon="15.669180">
        <ele>311.960319</ele>
        <time>2023-08-16T12:28:11.044Z</time>
      </trkpt>
      <trkpt lat="48.552011" lon="15.669234">
        <ele>311.214296</ele>
        <time>2023-08-16T12:28:13.547Z</time>
      </trkpt>
      <trkpt lat="48.552124" lon="15.669468">
        <ele>309.765092</ele>
        <time>2023-08-16T12:28:18.557Z</time>
      </trkpt>
      <trkpt lat="48.552279" lon="15.669604">
        <ele>308.412078</ele>
        <time>2023-08-16T12:28:23.173Z</time>
      </trkpt>
      <trkpt lat="48.552319" lon="15.669696">
        <ele>307.868256</ele>
        <time>2023-08-16T12:28:25.140Z</time>
      </trkpt>
      <trkpt lat="48.552350" lon="15.670015">
        <ele>306.275298</ele>
        <time>2023-08-16T12:28:30.801Z</time>
      </trkpt>
      <trkpt lat="48.552642" lon="15.670549">
        <ele>302.853212</ele>
        <time>2023-08-16T12:28:43.029Z</time>
      </trkpt>
      <trkpt lat="48.552922" lon="15.670833">
        <ele>300.335980</ele>
        <time>2023-08-16T12:28:52.298Z</time>
      </trkpt>
      <trkpt lat="48.553004" lon="15.670844">
        <ele>299.721530</ele>
        <time>2023-08-16T12:28:54.615Z</time>
      </trkpt>
      <trkpt lat="48.553215" lon="15.670767">
        <ele>298.101345</ele>
        <time>2023-08-16T12:29:00.683Z</time>
      </trkpt>
      <trkpt lat="48.553442" lon="15.670614">
        <ele>296.246060</ele>
        <time>2023-08-16T12:29:07.774Z</time>
      </trkpt>
      <trkpt lat="48.553764" lon="15.670825">
        <ele>293.102253</ele>
        <time>2023-08-16T12:29:13.284Z</time>
      </trkpt>
      <trkpt lat="48.553933" lon="15.671040">
        <ele>290.878697</ele>
        <time>2023-08-16T12:29:16.625Z</time>
      </trkpt>
      <trkpt lat="48.554098" lon="15.671326">
        <ele>288.351367</ele>
        <time>2023-08-16T12:29:20.503Z</time>
      </trkpt>
      <trkpt lat="48.554327" lon="15.671883">
        <ele>283.983372</ele>
        <time>2023-08-16T12:29:27.010Z</time>
      </trkpt>
      <trkpt lat="48.554438" lon="15.672310">
        <ele>280.927388</ele>
        <time>2023-08-16T12:29:31.422Z</time>
      </trkpt>
      <trkpt lat="48.554436" lon="15.672636">
        <ele>278.755631</ele>
        <time>2023-08-16T12:29:34.493Z</time>
      </trkpt>
      <trkpt lat="48.554511" lon="15.672787">
        <ele>277.498030</ele>
        <time>2023-08-16T12:29:36.270Z</time>
      </trkpt>
      <trkpt lat="48.554354" lon="15.672911">
        <ele>275.671703</ele>
        <time>2023-08-16T12:29:38.673Z</time>
      </trkpt>
      <trkpt lat="48.554148" lon="15.672923">
        <ele>273.528466</ele>
        <time>2023-08-16T12:29:41.485Z</time>
      </trkpt>
      <trkpt lat="48.553832" lon="15.673047">
        <ele>270.134215</ele>
        <time>2023-08-16T12:29:45.949Z</time>
      </trkpt>
      <trkpt lat="48.553737" lon="15.673237">
        <ele>268.495625</ele>
        <time>2023-08-16T12:29:48.128Z</time>
      </trkpt>
      <trkpt lat="48.553630" lon="15.673756">
        <ele>264.754886</ele>
        <time>2023-08-16T12:29:53.182Z</time>
      </trkpt>
      <trkpt lat="48.553530" lon="15.674969">
        <ele>257.302064</ele>
        <time>2023-08-16T12:30:05.259Z</time>
      </trkpt>
      <trkpt lat="48.553540" lon="15.675256">
        <ele>256.279069</ele>
        <time>2023-08-16T12:30:08.206Z</time>
      </trkpt>
      <trkpt lat="48.553751" lon="15.676454">
        <ele>251.866400</ele>
        <time>2023-08-16T12:30:21.391Z</time>
      </trkpt>
      <trkpt lat="48.553797" lon="15.677008">
        <ele>249.878982</ele>
        <time>2023-08-16T12:30:27.327Z</time>
      </trkpt>
      <trkpt lat="48.553785" lon="15.677504">
        <ele>248.047924</ele>
        <time>2023-08-16T12:30:32.560Z</time>
      </trkpt>
      <trkpt lat="48.553734" lon="15.678054">
        <ele>245.837599</ele>
        <time>2023-08-16T12:30:38.304Z</time>
      </trkpt>
      <trkpt lat="48.553736" lon="15.678413">
        <ele>244.408760</ele>
        <time>2023-08-16T12:30:41.963Z</time>
      </trkpt>
      <trkpt lat="48.552399" lon="15.679266">
        <ele>236.211911</ele>
        <time>2023-08-16T12:31:04.007Z</time>
      </trkpt>
      <trkpt lat="48.552270" lon="15.679301">
        <ele>235.617053</ele>
        <time>2023-08-16T12:31:05.987Z</time>
      </trkpt>
      <trkpt lat="48.552193" lon="15.679235">
        <ele>235.215241</ele>
        <time>2023-08-16T12:31:07.342Z</time>
      </trkpt>
      <trkpt lat="48.552078" lon="15.678976">
        <ele>234.278275</ele>
        <time>2023-08-16T12:31:10.558Z</time>
      </trkpt>
      <trkpt lat="48.551943" lon="15.678455">
        <ele>232.597362</ele>
        <time>2023-08-16T12:31:16.497Z</time>
      </trkpt>
      <trkpt lat="48.551944" lon="15.678324">
        <ele>232.203767</ele>
        <time>2023-08-16T12:31:17.916Z</time>
      </trkpt>
      <trkpt lat="48.552023" lon="15.678101">
        <ele>231.443886</ele>
        <time>2023-08-16T12:31:20.782Z</time>
      </trkpt>
      <trkpt lat="48.552016" lon="15.678008">
        <ele>231.162682</ele>
        <time>2023-08-16T12:31:21.839Z</time>
      </trkpt>
      <trkpt lat="48.551925" lon="15.677445">
        <ele>229.629719</ele>
        <time>2023-08-16T12:31:28.710Z</time>
      </trkpt>
      <trkpt lat="48.551845" lon="15.676670">
        <ele>229.177970</ele>
        <time>2023-08-16T12:31:39.099Z</time>
      </trkpt>
      <trkpt lat="48.551609" lon="15.675252">
        <ele>228.335864</ele>
        <time>2023-08-16T12:31:59.526Z</time>
      </trkpt>
      <trkpt lat="48.551527" lon="15.674694">
        <ele>228.125824</ele>
        <time>2023-08-16T12:32:08.291Z</time>
      </trkpt>
      <trkpt lat="48.551479" lon="15.673373">
        <ele>228.208728</ele>
        <time>2023-08-16T12:32:29.206Z</time>
      </trkpt>
      <trkpt lat="48.551386" lon="15.672630">
        <ele>228.256113</ele>
        <time>2023-08-16T12:32:42.054Z</time>
      </trkpt>
      <trkpt lat="48.551138" lon="15.671290">
        <ele>229.519733</ele>
        <time>2023-08-16T12:33:09.478Z</time>
      </trkpt>
      <trkpt lat="48.550956" lon="15.670906">
        <ele>230.140440</ele>
        <time>2023-08-16T12:33:19.928Z</time>
      </trkpt>
      <trkpt lat="48.550693" lon="15.670499">
        <ele>230.887965</ele>
        <time>2023-08-16T12:33:33.556Z</time>
      </trkpt>
      <trkpt lat="48.550443" lon="15.670313">
        <ele>231.441259</ele>
        <time>2023-08-16T12:33:44.523Z</time>
      </trkpt>
      <trkpt lat="48.550089" lon="15.669954">
        <ele>232.390877</ele>
        <time>2023-08-16T12:34:02.915Z</time>
      </trkpt>
      <trkpt lat="48.549163" lon="15.669575">
        <ele>234.749920</ele>
        <time>2023-08-16T12:34:41.928Z</time>
      </trkpt>
      <trkpt lat="48.548812" lon="15.669584">
        <ele>235.613121</ele>
        <time>2023-08-16T12:34:53.292Z</time>
      </trkpt>
      <trkpt lat="48.548599" lon="15.669630">
        <ele>236.142195</ele>
        <time>2023-08-16T12:34:59.814Z</time>
      </trkpt>
      <trkpt lat="48.548382" lon="15.669874">
        <ele>236.305089</ele>
        <time>2023-08-16T12:35:07.792Z</time>
      </trkpt>
      <trkpt lat="48.547897" lon="15.670622">
        <ele>236.391643</ele>
        <time>2023-08-16T12:35:25.682Z</time>
      </trkpt>
      <trkpt lat="48.547533" lon="15.671024">
        <ele>236.447951</ele>
        <time>2023-08-16T12:35:35.902Z</time>
      </trkpt>
      <trkpt lat="48.546355" lon="15.672091">
        <ele>238.096992</ele>
        <time>2023-08-16T12:36:09.631Z</time>
      </trkpt>
      <trkpt lat="48.545940" lon="15.672595">
        <ele>239.005738</ele>
        <time>2023-08-16T12:36:31.061Z</time>
      </trkpt>
      <trkpt lat="48.545710" lon="15.672700">
        <ele>239.415786</ele>
        <time>2023-08-16T12:36:41.765Z</time>
      </trkpt>
      <trkpt lat="48.545564" lon="15.672690">
        <ele>239.811077</ele>
        <time>2023-08-16T12:36:48.312Z</time>
      </trkpt>
      <trkpt lat="48.545317" lon="15.672561">
        <ele>240.957796</ele>
        <time>2023-08-16T12:37:00.365Z</time>
      </trkpt>
      <trkpt lat="48.545221" lon="15.672564">
        <ele>241.379107</ele>
        <time>2023-08-16T12:37:04.861Z</time>
      </trkpt>
      <trkpt lat="48.545140" lon="15.672620">
        <ele>241.769970</ele>
        <time>2023-08-16T12:37:09.275Z</time>
      </trkpt>
      <trkpt lat="48.544357" lon="15.673465">
        <ele>245.992315</ele>
        <time>2023-08-16T12:37:56.569Z</time>
      </trkpt>
      <trkpt lat="48.543457" lon="15.674590">
        <ele>250.516769</ele>
        <time>2023-08-16T12:38:47.774Z</time>
      </trkpt>
      <trkpt lat="48.542837" lon="15.675669">
        <ele>253.984005</ele>
        <time>2023-08-16T12:39:27.126Z</time>
      </trkpt>
      <trkpt lat="48.542331" lon="15.676697">
        <ele>255.764373</ele>
        <time>2023-08-16T12:40:03.768Z</time>
      </trkpt>
      <trkpt lat="48.542098" lon="15.677380">
        <ele>256.812997</ele>
        <time>2023-08-16T12:40:22.330Z</time>
      </trkpt>
      <trkpt lat="48.541788" lon="15.678441">
        <ele>256.354037</ele>
        <time>2023-08-16T12:40:40.947Z</time>
      </trkpt>
      <trkpt lat="48.541761" lon="15.678683">
        <ele>255.604634</ele>
        <time>2023-08-16T12:40:44.210Z</time>
      </trkpt>
      <trkpt lat="48.541805" lon="15.678959">
        <ele>254.737737</ele>
        <time>2023-08-16T12:40:47.896Z</time>
      </trkpt>
      <trkpt lat="48.542357" lon="15.679926">
        <ele>250.838844</ele>
        <time>2023-08-16T12:41:02.771Z</time>
      </trkpt>
      <trkpt lat="48.542502" lon="15.680350">
        <ele>249.312477</ele>
        <time>2023-08-16T12:41:08.000Z</time>
      </trkpt>
      <trkpt lat="48.542570" lon="15.680651">
        <ele>247.576212</ele>
        <time>2023-08-16T12:41:11.422Z</time>
      </trkpt>
      <trkpt lat="48.542690" lon="15.680946">
        <ele>245.686045</ele>
        <time>2023-08-16T12:41:15.120Z</time>
      </trkpt>
      <trkpt lat="48.542821" lon="15.681368">
        <ele>243.141583</ele>
        <time>2023-08-16T12:41:20.110Z</time>
      </trkpt>
      <trkpt lat="48.542903" lon="15.682081">
        <ele>239.190874</ele>
        <time>2023-08-16T12:41:27.922Z</time>
      </trkpt>
      <trkpt lat="48.542981" lon="15.682494">
        <ele>236.846281</ele>
        <time>2023-08-16T12:41:32.624Z</time>
      </trkpt>
      <trkpt lat="48.543147" lon="15.682971">
        <ele>234.277382</ele>
        <time>2023-08-16T12:41:38.624Z</time>
      </trkpt>
      <trkpt lat="48.543354" lon="15.683810">
        <ele>231.874356</ele>
        <time>2023-08-16T12:41:49.056Z</time>
      </trkpt>
      <trkpt lat="48.543520" lon="15.684927">
        <ele>228.801909</ele>
        <time>2023-08-16T12:42:03.634Z</time>
      </trkpt>
      <trkpt lat="48.543627" lon="15.685963">
        <ele>227.261915</ele>
        <time>2023-08-16T12:42:18.389Z</time>
      </trkpt>
      <trkpt lat="48.543690" lon="15.686504">
        <ele>227.169942</ele>
        <time>2023-08-16T12:42:25.868Z</time>
      </trkpt>
      <trkpt lat="48.543677" lon="15.686938">
        <ele>227.097202</ele>
        <time>2023-08-16T12:42:32.031Z</time>
      </trkpt>
      <trkpt lat="48.543434" lon="15.688748">
        <ele>227.497353</ele>
        <time>2023-08-16T12:43:03.453Z</time>
      </trkpt>
      <trkpt lat="48.543397" lon="15.688904">
        <ele>227.659166</ele>
        <time>2023-08-16T12:43:06.615Z</time>
      </trkpt>
      <trkpt lat="48.543256" lon="15.689185">
        <ele>228.003467</ele>
        <time>2023-08-16T12:43:13.593Z</time>
      </trkpt>
      <trkpt lat="48.543110" lon="15.689312">
        <ele>228.251967</ele>
        <time>2023-08-16T12:43:18.783Z</time>
      </trkpt>
      <trkpt lat="48.542936" lon="15.689371">
        <ele>228.514995</ele>
        <time>2023-08-16T12:43:24.208Z</time>
      </trkpt>
      <trkpt lat="48.541708" lon="15.689254">
        <ele>230.391439</ele>
        <time>2023-08-16T12:44:03.458Z</time>
      </trkpt>
      <trkpt lat="48.540013" lon="15.689259">
        <ele>232.878992</ele>
        <time>2023-08-16T12:44:53.569Z</time>
      </trkpt>
      <trkpt lat="48.539846" lon="15.689244">
        <ele>233.063669</ele>
        <time>2023-08-16T12:44:58.326Z</time>
      </trkpt>
      <trkpt lat="48.539280" lon="15.689065">
        <ele>233.702029</ele>
        <time>2023-08-16T12:45:15.209Z</time>
      </trkpt>
      <trkpt lat="48.538922" lon="15.688888">
        <ele>234.117862</ele>
        <time>2023-08-16T12:45:25.542Z</time>
      </trkpt>
      <trkpt lat="48.538130" lon="15.688723">
        <ele>234.147840</ele>
        <time>2023-08-16T12:45:44.472Z</time>
      </trkpt>
      <trkpt lat="48.538013" lon="15.688726">
        <ele>234.096205</ele>
        <time>2023-08-16T12:45:46.824Z</time>
      </trkpt>
      <trkpt lat="48.537748" lon="15.688809">
        <ele>233.976784</ele>
        <time>2023-08-16T12:45:52.500Z</time>
      </trkpt>
      <trkpt lat="48.537177" lon="15.689078">
        <ele>233.712853</ele>
        <time>2023-08-16T12:46:03.791Z</time>
      </trkpt>
      <trkpt lat="48.536731" lon="15.689195">
        <ele>233.979269</ele>
        <time>2023-08-16T12:46:12.862Z</time>
      </trkpt>
      <trkpt lat="48.536616" lon="15.689297">
        <ele>234.244886</ele>
        <time>2023-08-16T12:46:15.872Z</time>
      </trkpt>
      <trkpt lat="48.536478" lon="15.689339">
        <ele>234.525259</ele>
        <time>2023-08-16T12:46:19.379Z</time>
      </trkpt>
      <trkpt lat="48.536397" lon="15.689294">
        <ele>234.697151</ele>
        <time>2023-08-16T12:46:22.431Z</time>
      </trkpt>
      <trkpt lat="48.535715" lon="15.689292">
        <ele>236.055457</ele>
        <time>2023-08-16T12:46:45.077Z</time>
      </trkpt>
      <trkpt lat="48.535471" lon="15.689176">
        <ele>236.564929</ele>
        <time>2023-08-16T12:46:54.814Z</time>
      </trkpt>
      <trkpt lat="48.535481" lon="15.689077">
        <ele>236.696999</ele>
        <time>2023-08-16T12:46:58.147Z</time>
      </trkpt>
      <trkpt lat="48.535576" lon="15.688840">
        <ele>237.062358</ele>
        <time>2023-08-16T12:47:07.582Z</time>
      </trkpt>
      <trkpt lat="48.535646" lon="15.688666">
        <ele>237.613810</ele>
        <time>2023-08-16T12:47:14.204Z</time>
      </trkpt>
      <trkpt lat="48.535852" lon="15.688501">
        <ele>238.948808</ele>
        <time>2023-08-16T12:47:26.932Z</time>
      </trkpt>
      <trkpt lat="48.536329" lon="15.688370">
        <ele>241.724511</ele>
        <time>2023-08-16T12:47:55.230Z</time>
      </trkpt>
      <trkpt lat="48.537131" lon="15.688218">
        <ele>246.352129</ele>
        <time>2023-08-16T12:48:46.326Z</time>
      </trkpt>
      <trkpt lat="48.537187" lon="15.688239">
        <ele>246.682475</ele>
        <time>2023-08-16T12:48:49.459Z</time>
      </trkpt>
      <trkpt lat="48.537208" lon="15.688291">
        <ele>246.913370</ele>
        <time>2023-08-16T12:48:51.319Z</time>
      </trkpt>
      <trkpt lat="48.537334" lon="15.688217">
        <ele>247.753078</ele>
        <time>2023-08-16T12:48:58.260Z</time>
      </trkpt>
      <trkpt lat="48.538008" lon="15.688049">
        <ele>252.888539</ele>
        <time>2023-08-16T12:49:33.040Z</time>
      </trkpt>
      <trkpt lat="48.538207" lon="15.688006">
        <ele>254.399792</ele>
        <time>2023-08-16T12:49:47.795Z</time>
      </trkpt>
      <trkpt lat="48.538678" lon="15.688026">
        <ele>257.942019</ele>
        <time>2023-08-16T12:50:24.288Z</time>
      </trkpt>
      <trkpt lat="48.538842" lon="15.687995">
        <ele>259.184537</ele>
        <time>2023-08-16T12:50:38.229Z</time>
      </trkpt>
      <trkpt lat="48.538970" lon="15.687932">
        <ele>260.196608</ele>
        <time>2023-08-16T12:50:49.724Z</time>
      </trkpt>
      <trkpt lat="48.539068" lon="15.687820">
        <ele>261.164134</ele>
        <time>2023-08-16T12:51:00.138Z</time>
      </trkpt>
      <trkpt lat="48.539136" lon="15.687673">
        <ele>262.377666</ele>
        <time>2023-08-16T12:51:10.588Z</time>
      </trkpt>
      <trkpt lat="48.539230" lon="15.687356">
        <ele>264.728211</ele>
        <time>2023-08-16T12:51:30.868Z</time>
      </trkpt>
      <trkpt lat="48.539413" lon="15.686634">
        <ele>269.959949</ele>
        <time>2023-08-16T12:52:17.855Z</time>
      </trkpt>
      <trkpt lat="48.539525" lon="15.686027">
        <ele>274.224191</ele>
        <time>2023-08-16T12:52:56.450Z</time>
      </trkpt>
      <trkpt lat="48.539590" lon="15.685787">
        <ele>275.978951</ele>
        <time>2023-08-16T12:53:12.017Z</time>
      </trkpt>
      <trkpt lat="48.540093" lon="15.685053">
        <ele>282.145244</ele>
        <time>2023-08-16T12:54:11.415Z</time>
      </trkpt>
      <trkpt lat="48.540280" lon="15.684753">
        <ele>284.202115</ele>
        <time>2023-08-16T12:54:32.925Z</time>
      </trkpt>
      <trkpt lat="48.540333" lon="15.684613">
        <ele>285.007173</ele>
        <time>2023-08-16T12:54:41.047Z</time>
      </trkpt>
      <trkpt lat="48.540332" lon="15.684471">
        <ele>285.716077</ele>
        <time>2023-08-16T12:54:48.376Z</time>
      </trkpt>
      <trkpt lat="48.540215" lon="15.684462">
        <ele>286.599369</ele>
        <time>2023-08-16T12:54:57.014Z</time>
      </trkpt>
      <trkpt lat="48.539949" lon="15.684603">
        <ele>288.724867</ele>
        <time>2023-08-16T12:55:17.384Z</time>
      </trkpt>
      <trkpt lat="48.539813" lon="15.684548">
        <ele>289.786392</ele>
        <time>2023-08-16T12:55:26.841Z</time>
      </trkpt>
      <trkpt lat="48.539700" lon="15.684489">
        <ele>290.687855</ele>
        <time>2023-08-16T12:55:35.087Z</time>
      </trkpt>
      <trkpt lat="48.539611" lon="15.684239">
        <ele>292.104835</ele>
        <time>2023-08-16T12:55:47.633Z</time>
      </trkpt>
      <trkpt lat="48.539578" lon="15.683994">
        <ele>293.233180</ele>
        <time>2023-08-16T12:55:58.360Z</time>
      </trkpt>
      <trkpt lat="48.539634" lon="15.683275">
        <ele>295.788781</ele>
        <time>2023-08-16T12:56:28.514Z</time>
      </trkpt>
      <trkpt lat="48.539586" lon="15.682260">
        <ele>299.380902</ele>
        <time>2023-08-16T12:57:10.151Z</time>
      </trkpt>
      <trkpt lat="48.539601" lon="15.682091">
        <ele>299.982816</ele>
        <time>2023-08-16T12:57:17.378Z</time>
      </trkpt>
      <trkpt lat="48.539569" lon="15.681550">
        <ele>301.900176</ele>
        <time>2023-08-16T12:57:40.996Z</time>
      </trkpt>
      <trkpt lat="48.539536" lon="15.681309">
        <ele>302.791650</ele>
        <time>2023-08-16T12:57:51.513Z</time>
      </trkpt>
      <trkpt lat="48.539539" lon="15.681058">
        <ele>303.763436</ele>
        <time>2023-08-16T12:58:02.128Z</time>
      </trkpt>
      <trkpt lat="48.539729" lon="15.679870">
        <ele>308.494471</ele>
        <time>2023-08-16T12:58:53.530Z</time>
      </trkpt>
      <trkpt lat="48.539871" lon="15.679230">
        <ele>311.107321</ele>
        <time>2023-08-16T12:59:25.178Z</time>
      </trkpt>
      <trkpt lat="48.539897" lon="15.678368">
        <ele>314.644100</ele>
        <time>2023-08-16T13:00:04.316Z</time>
      </trkpt>
      <trkpt lat="48.539932" lon="15.677998">
        <ele>316.294277</ele>
        <time>2023-08-16T13:00:21.257Z</time>
      </trkpt>
      <trkpt lat="48.540003" lon="15.677750">
        <ele>317.487198</ele>
        <time>2023-08-16T13:00:33.476Z</time>
      </trkpt>
      <trkpt lat="48.540201" lon="15.677324">
        <ele>319.785195</ele>
        <time>2023-08-16T13:00:57.811Z</time>
      </trkpt>
      <trkpt lat="48.540240" lon="15.677200">
        <ele>320.391295</ele>
        <time>2023-08-16T13:01:04.602Z</time>
      </trkpt>
      <trkpt lat="48.540231" lon="15.676763">
        <ele>322.321616</ele>
        <time>2023-08-16T13:01:25.484Z</time>
      </trkpt>
      <trkpt lat="48.540124" lon="15.676243">
        <ele>324.725777</ele>
        <time>2023-08-16T13:01:51.634Z</time>
      </trkpt>
      <trkpt lat="48.540048" lon="15.676012">
        <ele>325.985616</ele>
        <time>2023-08-16T13:02:04.026Z</time>
      </trkpt>
      <trkpt lat="48.540050" lon="15.675868">
        <ele>326.715214</ele>
        <time>2023-08-16T13:02:10.668Z</time>
      </trkpt>
      <trkpt lat="48.540196" lon="15.675375">
        <ele>329.450949</ele>
        <time>2023-08-16T13:02:35.442Z</time>
      </trkpt>
      <trkpt lat="48.540611" lon="15.674808">
        <ele>333.732327</ele>
        <time>2023-08-16T13:03:14.823Z</time>
      </trkpt>
      <trkpt lat="48.540747" lon="15.674355">
        <ele>336.251871</ele>
        <time>2023-08-16T13:03:40.981Z</time>
      </trkpt>
      <trkpt lat="48.540803" lon="15.673743">
        <ele>339.501766</ele>
        <time>2023-08-16T13:04:16.070Z</time>
      </trkpt>
      <trkpt lat="48.540803" lon="15.673467">
        <ele>341.191498</ele>
        <time>2023-08-16T13:04:31.290Z</time>
      </trkpt>
      <trkpt lat="48.540921" lon="15.672757">
        <ele>345.673121</ele>
        <time>2023-08-16T13:05:13.079Z</time>
      </trkpt>
      <trkpt lat="48.540998" lon="15.672640">
        <ele>346.683090</ele>
        <time>2023-08-16T13:05:22.618Z</time>
      </trkpt>
      <trkpt lat="48.541165" lon="15.672235">
        <ele>349.604128</ele>
        <time>2023-08-16T13:05:49.204Z</time>
      </trkpt>
      <trkpt lat="48.541291" lon="15.672007">
        <ele>351.422334</ele>
        <time>2023-08-16T13:06:05.325Z</time>
      </trkpt>
      <trkpt lat="48.541461" lon="15.671442">
        <ele>355.221786</ele>
        <time>2023-08-16T13:06:39.833Z</time>
      </trkpt>
      <trkpt lat="48.541652" lon="15.671071">
        <ele>357.018928</ele>
        <time>2023-08-16T13:07:05.025Z</time>
      </trkpt>
      <trkpt lat="48.541776" lon="15.670961">
        <ele>357.809317</ele>
        <time>2023-08-16T13:07:16.187Z</time>
      </trkpt>
      <trkpt lat="48.541916" lon="15.670607">
        <ele>359.309812</ele>
        <time>2023-08-16T13:07:35.294Z</time>
      </trkpt>
      <trkpt lat="48.542216" lon="15.670150">
        <ele>361.651663</ele>
        <time>2023-08-16T13:08:01.055Z</time>
      </trkpt>
      <trkpt lat="48.542455" lon="15.669716">
        <ele>363.705843</ele>
        <time>2023-08-16T13:08:21.690Z</time>
      </trkpt>
      <trkpt lat="48.542526" lon="15.669494">
        <ele>364.602987</ele>
        <time>2023-08-16T13:08:30.182Z</time>
      </trkpt>
      <trkpt lat="48.542542" lon="15.669265">
        <ele>365.387707</ele>
        <time>2023-08-16T13:08:38.408Z</time>
      </trkpt>
      <trkpt lat="48.542507" lon="15.668500">
        <ele>366.929526</ele>
        <time>2023-08-16T13:09:03.832Z</time>
      </trkpt>
      <trkpt lat="48.542572" lon="15.667941">
        <ele>368.070685</ele>
        <time>2023-08-16T13:09:22.785Z</time>
      </trkpt>
      <trkpt lat="48.542819" lon="15.667249">
        <ele>369.651380</ele>
        <time>2023-08-16T13:09:50.966Z</time>
      </trkpt>
      <trkpt lat="48.543209" lon="15.666292">
        <ele>370.892967</ele>
        <time>2023-08-16T13:10:31.458Z</time>
      </trkpt>
      <trkpt lat="48.543678" lon="15.665345">
        <ele>371.122158</ele>
        <time>2023-08-16T13:11:05.400Z</time>
      </trkpt>
      <trkpt lat="48.543614" lon="15.665241">
        <ele>371.149675</ele>
        <time>2023-08-16T13:11:08.117Z</time>
      </trkpt>
      <trkpt lat="48.543503" lon="15.665386">
        <ele>371.192633</ele>
        <time>2023-08-16T13:11:10.860Z</time>
      </trkpt>
      <trkpt lat="48.543348" lon="15.665549">
        <ele>371.247918</ele>
        <time>2023-08-16T13:11:14.444Z</time>
      </trkpt>
      <trkpt lat="48.543151" lon="15.665887">
        <ele>370.852574</ele>
        <time>2023-08-16T13:11:19.632Z</time>
      </trkpt>
      <trkpt lat="48.542578" lon="15.667335">
        <ele>364.686201</ele>
        <time>2023-08-16T13:11:37.042Z</time>
      </trkpt>
      <trkpt lat="48.542161" lon="15.668461">
        <ele>359.554126</ele>
        <time>2023-08-16T13:11:49.834Z</time>
      </trkpt>
      <trkpt lat="48.542100" lon="15.669110">
        <ele>356.451233</ele>
        <time>2023-08-16T13:11:56.372Z</time>
      </trkpt>
      <trkpt lat="48.542028" lon="15.669388">
        <ele>355.038194</ele>
        <time>2023-08-16T13:11:59.415Z</time>
      </trkpt>
      <trkpt lat="48.541923" lon="15.669538">
        <ele>354.004885</ele>
        <time>2023-08-16T13:12:01.638Z</time>
      </trkpt>
      <trkpt lat="48.541735" lon="15.669730">
        <ele>352.382320</ele>
        <time>2023-08-16T13:12:05.175Z</time>
      </trkpt>
      <trkpt lat="48.541569" lon="15.670057">
        <ele>350.431788</ele>
        <time>2023-08-16T13:12:09.279Z</time>
      </trkpt>
      <trkpt lat="48.541565" lon="15.670059">
        <ele>350.401663</ele>
        <time>2023-08-16T13:12:09.347Z</time>
      </trkpt>
      <trkpt lat="48.541149" lon="15.670251">
        <ele>346.346993</ele>
        <time>2023-08-16T13:12:15.700Z</time>
      </trkpt>
      <trkpt lat="48.541051" lon="15.670405">
        <ele>344.558630</ele>
        <time>2023-08-16T13:12:17.682Z</time>
      </trkpt>
      <trkpt lat="48.540961" lon="15.670638">
        <ele>342.300123</ele>
        <time>2023-08-16T13:12:20.200Z</time>
      </trkpt>
      <trkpt lat="48.540753" lon="15.671163">
        <ele>337.177683</ele>
        <time>2023-08-16T13:12:25.758Z</time>
      </trkpt>
      <trkpt lat="48.540672" lon="15.671245">
        <ele>335.944585</ele>
        <time>2023-08-16T13:12:27.079Z</time>
      </trkpt>
      <trkpt lat="48.540579" lon="15.671263">
        <ele>334.758924</ele>
        <time>2023-08-16T13:12:28.335Z</time>
      </trkpt>
      <trkpt lat="48.540392" lon="15.671134">
        <ele>332.159214</ele>
        <time>2023-08-16T13:12:31.113Z</time>
      </trkpt>
      <trkpt lat="48.540038" lon="15.670662">
        <ele>326.187881</ele>
        <time>2023-08-16T13:12:37.480Z</time>
      </trkpt>
      <trkpt lat="48.539799" lon="15.670293">
        <ele>321.521460</ele>
        <time>2023-08-16T13:12:42.075Z</time>
      </trkpt>
      <trkpt lat="48.539738" lon="15.670257">
        <ele>320.620312</ele>
        <time>2023-08-16T13:12:42.953Z</time>
      </trkpt>
      <trkpt lat="48.539642" lon="15.670263">
        <ele>319.298243</ele>
        <time>2023-08-16T13:12:44.248Z</time>
      </trkpt>
      <trkpt lat="48.539558" lon="15.670320">
        <ele>318.031126</ele>
        <time>2023-08-16T13:12:45.485Z</time>
      </trkpt>
      <trkpt lat="48.539495" lon="15.670433">
        <ele>316.685291</ele>
        <time>2023-08-16T13:12:46.786Z</time>
      </trkpt>
      <trkpt lat="48.539356" lon="15.670907">
        <ele>311.962361</ele>
        <time>2023-08-16T13:12:51.379Z</time>
      </trkpt>
      <trkpt lat="48.539265" lon="15.671430">
        <ele>307.035828</ele>
        <time>2023-08-16T13:12:56.232Z</time>
      </trkpt>
      <trkpt lat="48.539275" lon="15.671778">
        <ele>303.862413</ele>
        <time>2023-08-16T13:12:59.426Z</time>
      </trkpt>
      <trkpt lat="48.539349" lon="15.672426">
        <ele>298.918777</ele>
        <time>2023-08-16T13:13:05.595Z</time>
      </trkpt>
      <trkpt lat="48.539339" lon="15.672677">
        <ele>297.388236</ele>
        <time>2023-08-16T13:13:08.018Z</time>
      </trkpt>
      <trkpt lat="48.539264" lon="15.672923">
        <ele>295.739776</ele>
        <time>2023-08-16T13:13:10.632Z</time>
      </trkpt>
      <trkpt lat="48.539107" lon="15.673189">
        <ele>293.570773</ele>
        <time>2023-08-16T13:13:14.094Z</time>
      </trkpt>
      <trkpt lat="48.539058" lon="15.673358">
        <ele>292.447799</ele>
        <time>2023-08-16T13:13:15.878Z</time>
      </trkpt>
      <trkpt lat="48.539060" lon="15.673457">
        <ele>291.844925</ele>
        <time>2023-08-16T13:13:16.839Z</time>
      </trkpt>
      <trkpt lat="48.539120" lon="15.673592">
        <ele>290.855247</ele>
        <time>2023-08-16T13:13:18.399Z</time>
      </trkpt>
      <trkpt lat="48.539347" lon="15.673806">
        <ele>288.395266</ele>
        <time>2023-08-16T13:13:22.267Z</time>
      </trkpt>
      <trkpt lat="48.539388" lon="15.673890">
        <ele>287.760065</ele>
        <time>2023-08-16T13:13:23.265Z</time>
      </trkpt>
      <trkpt lat="48.539400" lon="15.673985">
        <ele>287.171394</ele>
        <time>2023-08-16T13:13:24.178Z</time>
      </trkpt>
      <trkpt lat="48.539386" lon="15.674071">
        <ele>286.632343</ele>
        <time>2023-08-16T13:13:25.021Z</time>
      </trkpt>
      <trkpt lat="48.539307" lon="15.674230">
        <ele>285.422356</ele>
        <time>2023-08-16T13:13:26.915Z</time>
      </trkpt>
      <trkpt lat="48.539222" lon="15.674300">
        <ele>284.532335</ele>
        <time>2023-08-16T13:13:28.312Z</time>
      </trkpt>
      <trkpt lat="48.538889" lon="15.674456">
        <ele>280.983053</ele>
        <time>2023-08-16T13:13:33.315Z</time>
      </trkpt>
      <trkpt lat="48.538807" lon="15.674568">
        <ele>279.856159</ele>
        <time>2023-08-16T13:13:34.883Z</time>
      </trkpt>
      <trkpt lat="48.538665" lon="15.675201">
        <ele>275.345670</ele>
        <time>2023-08-16T13:13:41.164Z</time>
      </trkpt>
      <trkpt lat="48.538370" lon="15.676298">
        <ele>267.354946</ele>
        <time>2023-08-16T13:13:52.150Z</time>
      </trkpt>
      <trkpt lat="48.538240" lon="15.676755">
        <ele>264.268188</ele>
        <time>2023-08-16T13:13:56.759Z</time>
      </trkpt>
      <trkpt lat="48.538134" lon="15.677637">
        <ele>258.974667</ele>
        <time>2023-08-16T13:14:05.197Z</time>
      </trkpt>
      <trkpt lat="48.537727" lon="15.679541">
        <ele>248.153490</ele>
        <time>2023-08-16T13:14:24.679Z</time>
      </trkpt>
      <trkpt lat="48.537428" lon="15.680359">
        <ele>244.490068</ele>
        <time>2023-08-16T13:14:34.255Z</time>
      </trkpt>
      <trkpt lat="48.537281" lon="15.680992">
        <ele>241.860003</ele>
        <time>2023-08-16T13:14:41.199Z</time>
      </trkpt>
      <trkpt lat="48.537044" lon="15.681662">
        <ele>239.125833</ele>
        <time>2023-08-16T13:14:49.180Z</time>
      </trkpt>
      <trkpt lat="48.536939" lon="15.681812">
        <ele>238.627287</ele>
        <time>2023-08-16T13:14:51.559Z</time>
      </trkpt>
      <trkpt lat="48.536640" lon="15.682140">
        <ele>237.352562</ele>
        <time>2023-08-16T13:14:57.644Z</time>
      </trkpt>
      <trkpt lat="48.536546" lon="15.682377">
        <ele>236.721578</ele>
        <time>2023-08-16T13:15:00.683Z</time>
      </trkpt>
      <trkpt lat="48.536442" lon="15.682948">
        <ele>235.368985</ele>
        <time>2023-08-16T13:15:07.409Z</time>
      </trkpt>
      <trkpt lat="48.536335" lon="15.683310">
        <ele>234.463543</ele>
        <time>2023-08-16T13:15:12.034Z</time>
      </trkpt>
      <trkpt lat="48.536160" lon="15.683671">
        <ele>233.441674</ele>
        <time>2023-08-16T13:15:17.331Z</time>
      </trkpt>
      <trkpt lat="48.535881" lon="15.684121">
        <ele>232.696356</ele>
        <time>2023-08-16T13:15:24.513Z</time>
      </trkpt>
      <trkpt lat="48.535515" lon="15.684589">
        <ele>231.934417</ele>
        <time>2023-08-16T13:15:33.332Z</time>
      </trkpt>
      <trkpt lat="48.535144" lon="15.684992">
        <ele>231.208333</ele>
        <time>2023-08-16T13:15:42.566Z</time>
      </trkpt>
      <trkpt lat="48.535026" lon="15.685108">
        <ele>230.984634</ele>
        <time>2023-08-16T13:15:45.388Z</time>
      </trkpt>
      <trkpt lat="48.534971" lon="15.685280">
        <ele>230.783688</ele>
        <time>2023-08-16T13:15:47.944Z</time>
      </trkpt>
      <trkpt lat="48.534780" lon="15.685546">
        <ele>230.376140</ele>
        <time>2023-08-16T13:15:53.130Z</time>
      </trkpt>
      <trkpt lat="48.534745" lon="15.685681">
        <ele>230.247383</ele>
        <time>2023-08-16T13:15:55.022Z</time>
      </trkpt>
      <trkpt lat="48.534564" lon="15.686502">
        <ele>229.478891</ele>
        <time>2023-08-16T13:16:06.032Z</time>
      </trkpt>
      <trkpt lat="48.534165" lon="15.687418">
        <ele>228.505138</ele>
        <time>2023-08-16T13:16:20.369Z</time>
      </trkpt>
      <trkpt lat="48.533775" lon="15.687931">
        <ele>227.780413</ele>
        <time>2023-08-16T13:16:30.065Z</time>
      </trkpt>
      <trkpt lat="48.533681" lon="15.688091">
        <ele>227.557813</ele>
        <time>2023-08-16T13:16:32.597Z</time>
      </trkpt>
      <trkpt lat="48.533627" lon="15.688335">
        <ele>227.290076</ele>
        <time>2023-08-16T13:16:35.691Z</time>
      </trkpt>
      <trkpt lat="48.533641" lon="15.688434">
        <ele>227.184724</ele>
        <time>2023-08-16T13:16:36.853Z</time>
      </trkpt>
      <trkpt lat="48.533776" lon="15.688777">
        <ele>226.769471</ele>
        <time>2023-08-16T13:16:41.601Z</time>
      </trkpt>
      <trkpt lat="48.533840" lon="15.689150">
        <ele>226.368472</ele>
        <time>2023-08-16T13:16:46.027Z</time>
      </trkpt>
      <trkpt lat="48.533900" lon="15.689361">
        <ele>226.129495</ele>
        <time>2023-08-16T13:16:48.730Z</time>
      </trkpt>
      <trkpt lat="48.534014" lon="15.689450">
        <ele>225.927805</ele>
        <time>2023-08-16T13:16:50.925Z</time>
      </trkpt>
      <trkpt lat="48.534435" lon="15.689556">
        <ele>225.257019</ele>
        <time>2023-08-16T13:16:59.326Z</time>
      </trkpt>
      <trkpt lat="48.534472" lon="15.689621">
        <ele>225.167816</ele>
        <time>2023-08-16T13:17:00.799Z</time>
      </trkpt>
      <trkpt lat="48.534832" lon="15.689662">
        <ele>227.022216</ele>
        <time>2023-08-16T13:17:11.173Z</time>
      </trkpt>
      <trkpt lat="48.534959" lon="15.689762">
        <ele>227.761994</ele>
        <time>2023-08-16T13:17:16.008Z</time>
      </trkpt>
      <trkpt lat="48.534972" lon="15.689805">
        <ele>227.923664</ele>
        <time>2023-08-16T13:17:17.033Z</time>
      </trkpt>
      <trkpt lat="48.535014" lon="15.690460">
        <ele>230.174341</ele>
        <time>2023-08-16T13:17:35.859Z</time>
      </trkpt>
      <trkpt lat="48.535017" lon="15.690505">
        <ele>230.329026</ele>
        <time>2023-08-16T13:17:37.752Z</time>
      </trkpt>
      <trkpt lat="48.535077" lon="15.691346">
        <ele>233.222016</ele>
        <time>2023-08-16T13:18:12.933Z</time>
      </trkpt>
      <trkpt lat="48.535167" lon="15.691990">
        <ele>236.161942</ele>
        <time>2023-08-16T13:18:43.174Z</time>
      </trkpt>
      <trkpt lat="48.534954" lon="15.692283">
        <ele>238.657557</ele>
        <time>2023-08-16T13:19:04.815Z</time>
      </trkpt>
      <trkpt lat="48.534902" lon="15.692268">
        <ele>239.116118</ele>
        <time>2023-08-16T13:19:08.287Z</time>
      </trkpt>
      <trkpt lat="48.534843" lon="15.692250">
        <ele>239.637493</ele>
        <time>2023-08-16T13:19:12.174Z</time>
      </trkpt>
      <trkpt lat="48.534834" lon="15.692335">
        <ele>240.131211</ele>
        <time>2023-08-16T13:19:16.931Z</time>
      </trkpt>
      <trkpt lat="48.534797" lon="15.692382">
        <ele>240.549999</ele>
        <time>2023-08-16T13:19:20.990Z</time>
      </trkpt>
      <trkpt lat="48.534675" lon="15.692485">
        <ele>241.760669</ele>
        <time>2023-08-16T13:19:32.135Z</time>
      </trkpt>
      <trkpt lat="48.534605" lon="15.692508">
        <ele>242.381186</ele>
        <time>2023-08-16T13:19:37.144Z</time>
      </trkpt>
      <trkpt lat="48.534005" lon="15.692497">
        <ele>247.578695</ele>
        <time>2023-08-16T13:20:17.923Z</time>
      </trkpt>
      <trkpt lat="48.533188" lon="15.692251">
        <ele>253.714006</ele>
        <time>2023-08-16T13:20:59.650Z</time>
      </trkpt>
      <trkpt lat="48.532791" lon="15.692100">
        <ele>256.454941</ele>
        <time>2023-08-16T13:21:19.224Z</time>
      </trkpt>
      <trkpt lat="48.532307" lon="15.691876">
        <ele>259.844096</ele>
        <time>2023-08-16T13:21:47.285Z</time>
      </trkpt>
      <trkpt lat="48.532235" lon="15.691900">
        <ele>260.337742</ele>
        <time>2023-08-16T13:21:51.490Z</time>
      </trkpt>
      <trkpt lat="48.532217" lon="15.691993">
        <ele>260.767303</ele>
        <time>2023-08-16T13:21:56.197Z</time>
      </trkpt>
      <trkpt lat="48.532253" lon="15.692078">
        <ele>261.214630</ele>
        <time>2023-08-16T13:22:01.050Z</time>
      </trkpt>
      <trkpt lat="48.532650" lon="15.692258">
        <ele>265.211370</ele>
        <time>2023-08-16T13:22:29.946Z</time>
      </trkpt>
      <trkpt lat="48.532863" lon="15.692527">
        <ele>268.257748</ele>
        <time>2023-08-16T13:22:50.388Z</time>
      </trkpt>
      <trkpt lat="48.532847" lon="15.692614">
        <ele>268.913736</ele>
        <time>2023-08-16T13:22:55.455Z</time>
      </trkpt>
      <trkpt lat="48.532600" lon="15.692912">
        <ele>272.382296</ele>
        <time>2023-08-16T13:23:20.721Z</time>
      </trkpt>
      <trkpt lat="48.532540" lon="15.693038">
        <ele>273.509818</ele>
        <time>2023-08-16T13:23:29.629Z</time>
      </trkpt>
      <trkpt lat="48.531929" lon="15.693467">
        <ele>280.902441</ele>
        <time>2023-08-16T13:24:38.269Z</time>
      </trkpt>
      <trkpt lat="48.531847" lon="15.693471">
        <ele>281.802559</ele>
        <time>2023-08-16T13:24:46.282Z</time>
      </trkpt>
      <trkpt lat="48.531746" lon="15.693400">
        <ele>282.331307</ele>
        <time>2023-08-16T13:24:56.641Z</time>
      </trkpt>
      <trkpt lat="48.531580" lon="15.693343">
        <ele>283.132150</ele>
        <time>2023-08-16T13:25:12.571Z</time>
      </trkpt>
      <trkpt lat="48.531280" lon="15.693396">
        <ele>284.553057</ele>
        <time>2023-08-16T13:25:37.702Z</time>
      </trkpt>
      <trkpt lat="48.531064" lon="15.693390">
        <ele>285.569352</ele>
        <time>2023-08-16T13:25:53.782Z</time>
      </trkpt>
      <trkpt lat="48.530749" lon="15.693171">
        <ele>287.200707</ele>
        <time>2023-08-16T13:26:14.374Z</time>
      </trkpt>
      <trkpt lat="48.530503" lon="15.692860">
        <ele>288.709977</ele>
        <time>2023-08-16T13:26:28.443Z</time>
      </trkpt>
      <trkpt lat="48.530308" lon="15.692716">
        <ele>289.731125</ele>
        <time>2023-08-16T13:26:35.892Z</time>
      </trkpt>
      <trkpt lat="48.529722" lon="15.692509">
        <ele>286.304458</ele>
        <time>2023-08-16T13:26:53.656Z</time>
      </trkpt>
      <trkpt lat="48.529293" lon="15.692465">
        <ele>282.800206</ele>
        <time>2023-08-16T13:27:05.240Z</time>
      </trkpt>
      <trkpt lat="48.529016" lon="15.692456">
        <ele>280.542232</ele>
        <time>2023-08-16T13:27:09.383Z</time>
      </trkpt>
      <trkpt lat="48.528605" lon="15.692626">
        <ele>277.069341</ele>
        <time>2023-08-16T13:27:15.599Z</time>
      </trkpt>
      <trkpt lat="48.528601" lon="15.692627">
        <ele>277.036299</ele>
        <time>2023-08-16T13:27:15.660Z</time>
      </trkpt>
      <trkpt lat="48.528289" lon="15.692673">
        <ele>273.828977</ele>
        <time>2023-08-16T13:27:20.156Z</time>
      </trkpt>
      <trkpt lat="48.527572" lon="15.693065">
        <ele>264.032761</ele>
        <time>2023-08-16T13:27:30.992Z</time>
      </trkpt>
      <trkpt lat="48.527284" lon="15.693313">
        <ele>259.773579</ele>
        <time>2023-08-16T13:27:35.747Z</time>
      </trkpt>
      <trkpt lat="48.526913" lon="15.693605">
        <ele>254.398866</ele>
        <time>2023-08-16T13:27:41.769Z</time>
      </trkpt>
      <trkpt lat="48.526737" lon="15.693701">
        <ele>252.135373</ele>
        <time>2023-08-16T13:27:44.491Z</time>
      </trkpt>
      <trkpt lat="48.526363" lon="15.693819">
        <ele>248.573181</ele>
        <time>2023-08-16T13:27:50.082Z</time>
      </trkpt>
      <trkpt lat="48.526074" lon="15.693982">
        <ele>245.696934</ele>
        <time>2023-08-16T13:27:54.658Z</time>
      </trkpt>
      <trkpt lat="48.525638" lon="15.694221">
        <ele>241.372424</ele>
        <time>2023-08-16T13:28:01.642Z</time>
      </trkpt>
      <trkpt lat="48.525473" lon="15.694255">
        <ele>239.819834</ele>
        <time>2023-08-16T13:28:04.190Z</time>
      </trkpt>
      <trkpt lat="48.525154" lon="15.694422">
        <ele>236.672037</ele>
        <time>2023-08-16T13:28:09.408Z</time>
      </trkpt>
      <trkpt lat="48.524523" lon="15.694954">
        <ele>232.914324</ele>
        <time>2023-08-16T13:28:21.024Z</time>
      </trkpt>
      <trkpt lat="48.524254" lon="15.695121">
        <ele>231.595055</ele>
        <time>2023-08-16T13:28:25.924Z</time>
      </trkpt>
      <trkpt lat="48.523967" lon="15.695250">
        <ele>230.236794</ele>
        <time>2023-08-16T13:28:32.737Z</time>
      </trkpt>
      <trkpt lat="48.523667" lon="15.695440">
        <ele>228.761161</ele>
        <time>2023-08-16T13:28:40.372Z</time>
      </trkpt>
      <trkpt lat="48.523031" lon="15.695904">
        <ele>227.585461</ele>
        <time>2023-08-16T13:28:57.587Z</time>
      </trkpt>
      <trkpt lat="48.521982" lon="15.696443">
        <ele>227.600058</ele>
        <time>2023-08-16T13:29:33.850Z</time>
      </trkpt>
      <trkpt lat="48.521744" lon="15.696496">
        <ele>227.603227</ele>
        <time>2023-08-16T13:29:42.838Z</time>
      </trkpt>
      <trkpt lat="48.521981" lon="15.696702">
        <ele>227.603282</ele>
        <time>2023-08-16T13:29:51.810Z</time>
      </trkpt>
      <trkpt lat="48.522594" lon="15.697244">
        <ele>227.603282</ele>
        <time>2023-08-16T13:30:15.220Z</time>
      </trkpt>
      <trkpt lat="48.522775" lon="15.697378">
        <ele>227.603282</ele>
        <time>2023-08-16T13:30:22.437Z</time>
      </trkpt>
    </trkseg>
  </trk>
</gpx>        
